<?xml version="1.0" encoding="UTF-8" standalone="no" ?>
<gpx xmlns="http://www.topografix.com/GPX/1/1" xmlns:xsi="http://www.w3.org/2001/XMLSchema-instance" xsi:schemaLocation="http://www.topografix.com/GPX/1/1 http://www.topografix.com/GPX/1/1/gpx.xsd" version="1.1" creator="VisuGPX - https://www.visugpx.com">
  <metadata>
    <name>ASLPM marche Gué de Velluire du 18 Mai 2015</name>
    <desc><![CDATA[Aslpm marche Gué de Velluire du 18 Mai 2015
]]></desc>
  </metadata>
  <trk>
    <name><![CDATA[Marche  Gué de Velluire]]></name>
    <trkseg>
      <trkpt lat="46.37372" lon="-0.92404">
        <ele>4.4</ele>
        <time>2015-05-18T07:01:53.000Z</time>
      </trkpt>
      <trkpt lat="46.37372" lon="-0.92406">
        <ele>4.3</ele>
        <time>2015-05-18T07:02:02.000Z</time>
      </trkpt>
      <trkpt lat="46.37368" lon="-0.9241">
        <ele>4.1</ele>
        <time>2015-05-18T07:04:01.000Z</time>
      </trkpt>
      <trkpt lat="46.37361" lon="-0.92419">
        <ele>4</ele>
        <time>2015-05-18T07:04:11.000Z</time>
      </trkpt>
      <trkpt lat="46.37356" lon="-0.92429">
        <ele>4</ele>
        <time>2015-05-18T07:04:20.000Z</time>
      </trkpt>
      <trkpt lat="46.37351" lon="-0.92442">
        <ele>4</ele>
        <time>2015-05-18T07:04:30.000Z</time>
      </trkpt>
      <trkpt lat="46.37348" lon="-0.92448">
        <ele>3.7</ele>
        <time>2015-05-18T07:04:39.000Z</time>
      </trkpt>
      <trkpt lat="46.37344" lon="-0.92449">
        <ele>3.7</ele>
        <time>2015-05-18T07:04:49.000Z</time>
      </trkpt>
      <trkpt lat="46.37339" lon="-0.92453">
        <ele>3.4</ele>
        <time>2015-05-18T07:04:58.000Z</time>
      </trkpt>
      <trkpt lat="46.37339" lon="-0.92452">
        <ele>3.5</ele>
        <time>2015-05-18T07:05:06.000Z</time>
      </trkpt>
      <trkpt lat="46.37342" lon="-0.92451">
        <ele>3.5</ele>
        <time>2015-05-18T07:05:16.000Z</time>
      </trkpt>
      <trkpt lat="46.3734" lon="-0.92452">
        <ele>3.5</ele>
        <time>2015-05-18T07:06:51.000Z</time>
      </trkpt>
      <trkpt lat="46.37334" lon="-0.92455">
        <ele>3.3</ele>
        <time>2015-05-18T07:06:57.000Z</time>
      </trkpt>
      <trkpt lat="46.37331" lon="-0.92457">
        <ele>3.2</ele>
        <time>2015-05-18T07:07:02.000Z</time>
      </trkpt>
      <trkpt lat="46.37329" lon="-0.92458">
        <ele>3.2</ele>
        <time>2015-05-18T07:07:04.000Z</time>
      </trkpt>
      <trkpt lat="46.3732" lon="-0.92462">
        <ele>3.4</ele>
        <time>2015-05-18T07:07:12.000Z</time>
      </trkpt>
      <trkpt lat="46.37297" lon="-0.92478">
        <ele>3.7</ele>
        <time>2015-05-18T07:07:33.000Z</time>
      </trkpt>
      <trkpt lat="46.37287" lon="-0.92488">
        <ele>3.6</ele>
        <time>2015-05-18T07:07:42.000Z</time>
      </trkpt>
      <trkpt lat="46.37285" lon="-0.9249">
        <ele>3.6</ele>
        <time>2015-05-18T07:07:44.000Z</time>
      </trkpt>
      <trkpt lat="46.37281" lon="-0.92497">
        <ele>3.8</ele>
        <time>2015-05-18T07:07:49.000Z</time>
      </trkpt>
      <trkpt lat="46.37272" lon="-0.92503">
        <ele>3.8</ele>
        <time>2015-05-18T07:07:57.000Z</time>
      </trkpt>
      <trkpt lat="46.37263" lon="-0.92511">
        <ele>3.6</ele>
        <time>2015-05-18T07:08:06.000Z</time>
      </trkpt>
      <trkpt lat="46.37255" lon="-0.92519">
        <ele>3.7</ele>
        <time>2015-05-18T07:08:13.000Z</time>
      </trkpt>
      <trkpt lat="46.37245" lon="-0.92532">
        <ele>3.8</ele>
        <time>2015-05-18T07:08:24.000Z</time>
      </trkpt>
      <trkpt lat="46.37235" lon="-0.92545">
        <ele>3.4</ele>
        <time>2015-05-18T07:08:34.000Z</time>
      </trkpt>
      <trkpt lat="46.37225" lon="-0.92556">
        <ele>3.8</ele>
        <time>2015-05-18T07:08:44.000Z</time>
      </trkpt>
      <trkpt lat="46.37214" lon="-0.92568">
        <ele>3.4</ele>
        <time>2015-05-18T07:08:55.000Z</time>
      </trkpt>
      <trkpt lat="46.37202" lon="-0.92582">
        <ele>3.5</ele>
        <time>2015-05-18T07:09:07.000Z</time>
      </trkpt>
      <trkpt lat="46.37194" lon="-0.9259">
        <ele>3.5</ele>
        <time>2015-05-18T07:09:15.000Z</time>
      </trkpt>
      <trkpt lat="46.37185" lon="-0.926">
        <ele>3.2</ele>
        <time>2015-05-18T07:09:24.000Z</time>
      </trkpt>
      <trkpt lat="46.37178" lon="-0.92607">
        <ele>3.3</ele>
        <time>2015-05-18T07:09:31.000Z</time>
      </trkpt>
      <trkpt lat="46.37166" lon="-0.92621">
        <ele>3.3</ele>
        <time>2015-05-18T07:09:43.000Z</time>
      </trkpt>
      <trkpt lat="46.37158" lon="-0.9263">
        <ele>3.1</ele>
        <time>2015-05-18T07:09:51.000Z</time>
      </trkpt>
      <trkpt lat="46.37148" lon="-0.92641">
        <ele>3.3</ele>
        <time>2015-05-18T07:10:01.000Z</time>
      </trkpt>
      <trkpt lat="46.37142" lon="-0.92648">
        <ele>3.2</ele>
        <time>2015-05-18T07:10:07.000Z</time>
      </trkpt>
      <trkpt lat="46.37134" lon="-0.92657">
        <ele>2.9</ele>
        <time>2015-05-18T07:10:15.000Z</time>
      </trkpt>
      <trkpt lat="46.37123" lon="-0.92668">
        <ele>3.1</ele>
        <time>2015-05-18T07:10:25.000Z</time>
      </trkpt>
      <trkpt lat="46.37111" lon="-0.92679">
        <ele>3.1</ele>
        <time>2015-05-18T07:10:37.000Z</time>
      </trkpt>
      <trkpt lat="46.37102" lon="-0.92688">
        <ele>2.8</ele>
        <time>2015-05-18T07:10:45.000Z</time>
      </trkpt>
      <trkpt lat="46.37094" lon="-0.92697">
        <ele>3.1</ele>
        <time>2015-05-18T07:10:53.000Z</time>
      </trkpt>
      <trkpt lat="46.37085" lon="-0.92706">
        <ele>3.1</ele>
        <time>2015-05-18T07:11:02.000Z</time>
      </trkpt>
      <trkpt lat="46.37076" lon="-0.92716">
        <ele>2.6</ele>
        <time>2015-05-18T07:11:11.000Z</time>
      </trkpt>
      <trkpt lat="46.37066" lon="-0.92726">
        <ele>2.5</ele>
        <time>2015-05-18T07:11:21.000Z</time>
      </trkpt>
      <trkpt lat="46.37056" lon="-0.92736">
        <ele>2.5</ele>
        <time>2015-05-18T07:11:30.000Z</time>
      </trkpt>
      <trkpt lat="46.37046" lon="-0.92745">
        <ele>2.4</ele>
        <time>2015-05-18T07:11:39.000Z</time>
      </trkpt>
      <trkpt lat="46.37038" lon="-0.92754">
        <ele>2.5</ele>
        <time>2015-05-18T07:11:47.000Z</time>
      </trkpt>
      <trkpt lat="46.37033" lon="-0.92758">
        <ele>2.6</ele>
        <time>2015-05-18T07:11:54.000Z</time>
      </trkpt>
      <trkpt lat="46.37032" lon="-0.92759">
        <ele>2.6</ele>
        <time>2015-05-18T07:11:56.000Z</time>
      </trkpt>
      <trkpt lat="46.3702" lon="-0.92771">
        <ele>2.5</ele>
        <time>2015-05-18T07:12:07.000Z</time>
      </trkpt>
      <trkpt lat="46.37011" lon="-0.92781">
        <ele>2.5</ele>
        <time>2015-05-18T07:12:15.000Z</time>
      </trkpt>
      <trkpt lat="46.36999" lon="-0.92795">
        <ele>2.4</ele>
        <time>2015-05-18T07:12:26.000Z</time>
      </trkpt>
      <trkpt lat="46.36974" lon="-0.92821">
        <ele>2.4</ele>
        <time>2015-05-18T07:12:47.000Z</time>
      </trkpt>
      <trkpt lat="46.36963" lon="-0.92833">
        <ele>2.3</ele>
        <time>2015-05-18T07:12:57.000Z</time>
      </trkpt>
      <trkpt lat="46.36952" lon="-0.92845">
        <ele>2.7</ele>
        <time>2015-05-18T07:13:07.000Z</time>
      </trkpt>
      <trkpt lat="46.36941" lon="-0.92856">
        <ele>3</ele>
        <time>2015-05-18T07:13:16.000Z</time>
      </trkpt>
      <trkpt lat="46.36931" lon="-0.92867">
        <ele>2.9</ele>
        <time>2015-05-18T07:13:25.000Z</time>
      </trkpt>
      <trkpt lat="46.36905" lon="-0.92894">
        <ele>2.8</ele>
        <time>2015-05-18T07:13:48.000Z</time>
      </trkpt>
      <trkpt lat="46.36892" lon="-0.92906">
        <ele>2.4</ele>
        <time>2015-05-18T07:13:58.000Z</time>
      </trkpt>
      <trkpt lat="46.36879" lon="-0.92918">
        <ele>2.4</ele>
        <time>2015-05-18T07:14:08.000Z</time>
      </trkpt>
      <trkpt lat="46.36862" lon="-0.92932">
        <ele>2.4</ele>
        <time>2015-05-18T07:14:21.000Z</time>
      </trkpt>
      <trkpt lat="46.36848" lon="-0.92941">
        <ele>2.5</ele>
        <time>2015-05-18T07:14:31.000Z</time>
      </trkpt>
      <trkpt lat="46.36836" lon="-0.92949">
        <ele>2.8</ele>
        <time>2015-05-18T07:14:41.000Z</time>
      </trkpt>
      <trkpt lat="46.36821" lon="-0.92959">
        <ele>2.7</ele>
        <time>2015-05-18T07:14:52.000Z</time>
      </trkpt>
      <trkpt lat="46.36806" lon="-0.92969">
        <ele>3</ele>
        <time>2015-05-18T07:15:03.000Z</time>
      </trkpt>
      <trkpt lat="46.36793" lon="-0.92976">
        <ele>2.5</ele>
        <time>2015-05-18T07:15:13.000Z</time>
      </trkpt>
      <trkpt lat="46.36783" lon="-0.92983">
        <ele>2.1</ele>
        <time>2015-05-18T07:15:21.000Z</time>
      </trkpt>
      <trkpt lat="46.36752" lon="-0.93001">
        <ele>2.9</ele>
        <time>2015-05-18T07:15:44.000Z</time>
      </trkpt>
      <trkpt lat="46.36739" lon="-0.93009">
        <ele>2.5</ele>
        <time>2015-05-18T07:15:54.000Z</time>
      </trkpt>
      <trkpt lat="46.36727" lon="-0.93019">
        <ele>2.6</ele>
        <time>2015-05-18T07:16:04.000Z</time>
      </trkpt>
      <trkpt lat="46.36712" lon="-0.93031">
        <ele>2.9</ele>
        <time>2015-05-18T07:16:16.000Z</time>
      </trkpt>
      <trkpt lat="46.367" lon="-0.93042">
        <ele>2.5</ele>
        <time>2015-05-18T07:16:27.000Z</time>
      </trkpt>
      <trkpt lat="46.36686" lon="-0.93055">
        <ele>2.3</ele>
        <time>2015-05-18T07:16:39.000Z</time>
      </trkpt>
      <trkpt lat="46.36676" lon="-0.93065">
        <ele>2.4</ele>
        <time>2015-05-18T07:16:48.000Z</time>
      </trkpt>
      <trkpt lat="46.36662" lon="-0.93078">
        <ele>2.3</ele>
        <time>2015-05-18T07:17:00.000Z</time>
      </trkpt>
      <trkpt lat="46.36647" lon="-0.93094">
        <ele>2.7</ele>
        <time>2015-05-18T07:17:14.000Z</time>
      </trkpt>
      <trkpt lat="46.36641" lon="-0.93101">
        <ele>2.9</ele>
        <time>2015-05-18T07:17:20.000Z</time>
      </trkpt>
      <trkpt lat="46.36636" lon="-0.93105">
        <ele>3</ele>
        <time>2015-05-18T07:17:24.000Z</time>
      </trkpt>
      <trkpt lat="46.36622" lon="-0.93119">
        <ele>2.7</ele>
        <time>2015-05-18T07:17:36.000Z</time>
      </trkpt>
      <trkpt lat="46.36612" lon="-0.93128">
        <ele>2.4</ele>
        <time>2015-05-18T07:17:45.000Z</time>
      </trkpt>
      <trkpt lat="46.36602" lon="-0.93137">
        <ele>2.4</ele>
        <time>2015-05-18T07:17:54.000Z</time>
      </trkpt>
      <trkpt lat="46.36588" lon="-0.93149">
        <ele>2.5</ele>
        <time>2015-05-18T07:18:06.000Z</time>
      </trkpt>
      <trkpt lat="46.36575" lon="-0.93158">
        <ele>2.5</ele>
        <time>2015-05-18T07:18:17.000Z</time>
      </trkpt>
      <trkpt lat="46.3656" lon="-0.93167">
        <ele>2.8</ele>
        <time>2015-05-18T07:18:30.000Z</time>
      </trkpt>
      <trkpt lat="46.36545" lon="-0.93175">
        <ele>2.4</ele>
        <time>2015-05-18T07:18:42.000Z</time>
      </trkpt>
      <trkpt lat="46.36535" lon="-0.9318">
        <ele>2.1</ele>
        <time>2015-05-18T07:18:50.000Z</time>
      </trkpt>
      <trkpt lat="46.36524" lon="-0.93182">
        <ele>2.1</ele>
        <time>2015-05-18T07:18:58.000Z</time>
      </trkpt>
      <trkpt lat="46.36511" lon="-0.93185">
        <ele>2.6</ele>
        <time>2015-05-18T07:19:08.000Z</time>
      </trkpt>
      <trkpt lat="46.36499" lon="-0.93187">
        <ele>3</ele>
        <time>2015-05-18T07:19:17.000Z</time>
      </trkpt>
      <trkpt lat="46.36483" lon="-0.93187">
        <ele>2.8</ele>
        <time>2015-05-18T07:19:28.000Z</time>
      </trkpt>
      <trkpt lat="46.36465" lon="-0.93187">
        <ele>2.7</ele>
        <time>2015-05-18T07:19:41.000Z</time>
      </trkpt>
      <trkpt lat="46.36448" lon="-0.93187">
        <ele>2.7</ele>
        <time>2015-05-18T07:19:53.000Z</time>
      </trkpt>
      <trkpt lat="46.36434" lon="-0.93188">
        <ele>2.5</ele>
        <time>2015-05-18T07:20:03.000Z</time>
      </trkpt>
      <trkpt lat="46.36421" lon="-0.93189">
        <ele>2.1</ele>
        <time>2015-05-18T07:20:13.000Z</time>
      </trkpt>
      <trkpt lat="46.36403" lon="-0.93192">
        <ele>2.5</ele>
        <time>2015-05-18T07:20:26.000Z</time>
      </trkpt>
      <trkpt lat="46.36388" lon="-0.93199">
        <ele>2.8</ele>
        <time>2015-05-18T07:20:37.000Z</time>
      </trkpt>
      <trkpt lat="46.36372" lon="-0.93208">
        <ele>2.2</ele>
        <time>2015-05-18T07:20:50.000Z</time>
      </trkpt>
      <trkpt lat="46.36358" lon="-0.93218">
        <ele>2.1</ele>
        <time>2015-05-18T07:21:01.000Z</time>
      </trkpt>
      <trkpt lat="46.36347" lon="-0.93228">
        <ele>2.5</ele>
        <time>2015-05-18T07:21:11.000Z</time>
      </trkpt>
      <trkpt lat="46.36331" lon="-0.93244">
        <ele>2.9</ele>
        <time>2015-05-18T07:21:25.000Z</time>
      </trkpt>
      <trkpt lat="46.36317" lon="-0.93259">
        <ele>2.3</ele>
        <time>2015-05-18T07:21:38.000Z</time>
      </trkpt>
      <trkpt lat="46.36305" lon="-0.93273">
        <ele>2</ele>
        <time>2015-05-18T07:21:50.000Z</time>
      </trkpt>
      <trkpt lat="46.36293" lon="-0.93285">
        <ele>2</ele>
        <time>2015-05-18T07:22:01.000Z</time>
      </trkpt>
      <trkpt lat="46.36284" lon="-0.93293">
        <ele>2</ele>
        <time>2015-05-18T07:22:09.000Z</time>
      </trkpt>
      <trkpt lat="46.36273" lon="-0.93303">
        <ele>2.2</ele>
        <time>2015-05-18T07:22:19.000Z</time>
      </trkpt>
      <trkpt lat="46.36258" lon="-0.93316">
        <ele>2.5</ele>
        <time>2015-05-18T07:22:33.000Z</time>
      </trkpt>
      <trkpt lat="46.36245" lon="-0.93326">
        <ele>2.3</ele>
        <time>2015-05-18T07:22:44.000Z</time>
      </trkpt>
      <trkpt lat="46.3623" lon="-0.93338">
        <ele>2.6</ele>
        <time>2015-05-18T07:22:57.000Z</time>
      </trkpt>
      <trkpt lat="46.36215" lon="-0.93349">
        <ele>2.5</ele>
        <time>2015-05-18T07:23:10.000Z</time>
      </trkpt>
      <trkpt lat="46.36201" lon="-0.93357">
        <ele>2.7</ele>
        <time>2015-05-18T07:23:21.000Z</time>
      </trkpt>
      <trkpt lat="46.36184" lon="-0.93365">
        <ele>2.9</ele>
        <time>2015-05-18T07:23:34.000Z</time>
      </trkpt>
      <trkpt lat="46.3617" lon="-0.93369">
        <ele>2.7</ele>
        <time>2015-05-18T07:23:44.000Z</time>
      </trkpt>
      <trkpt lat="46.36158" lon="-0.9337">
        <ele>2.7</ele>
        <time>2015-05-18T07:23:53.000Z</time>
      </trkpt>
      <trkpt lat="46.36142" lon="-0.93369">
        <ele>2.7</ele>
        <time>2015-05-18T07:24:05.000Z</time>
      </trkpt>
      <trkpt lat="46.36128" lon="-0.93367">
        <ele>2.8</ele>
        <time>2015-05-18T07:24:15.000Z</time>
      </trkpt>
      <trkpt lat="46.36117" lon="-0.93367">
        <ele>2.8</ele>
        <time>2015-05-18T07:24:23.000Z</time>
      </trkpt>
      <trkpt lat="46.36073" lon="-0.93374">
        <ele>2</ele>
        <time>2015-05-18T07:24:55.000Z</time>
      </trkpt>
      <trkpt lat="46.36057" lon="-0.93379">
        <ele>2</ele>
        <time>2015-05-18T07:25:07.000Z</time>
      </trkpt>
      <trkpt lat="46.36045" lon="-0.93383">
        <ele>2.4</ele>
        <time>2015-05-18T07:25:16.000Z</time>
      </trkpt>
      <trkpt lat="46.3603" lon="-0.9339">
        <ele>2.9</ele>
        <time>2015-05-18T07:25:28.000Z</time>
      </trkpt>
      <trkpt lat="46.36014" lon="-0.93396">
        <ele>2.7</ele>
        <time>2015-05-18T07:25:41.000Z</time>
      </trkpt>
      <trkpt lat="46.36001" lon="-0.93402">
        <ele>2.5</ele>
        <time>2015-05-18T07:25:51.000Z</time>
      </trkpt>
      <trkpt lat="46.35984" lon="-0.93408">
        <ele>2.5</ele>
        <time>2015-05-18T07:26:04.000Z</time>
      </trkpt>
      <trkpt lat="46.35966" lon="-0.93415">
        <ele>2.9</ele>
        <time>2015-05-18T07:26:17.000Z</time>
      </trkpt>
      <trkpt lat="46.35949" lon="-0.9342">
        <ele>2.9</ele>
        <time>2015-05-18T07:26:29.000Z</time>
      </trkpt>
      <trkpt lat="46.35928" lon="-0.93428">
        <ele>2.2</ele>
        <time>2015-05-18T07:26:45.000Z</time>
      </trkpt>
      <trkpt lat="46.3592" lon="-0.93431">
        <ele>2.1</ele>
        <time>2015-05-18T07:26:51.000Z</time>
      </trkpt>
      <trkpt lat="46.3591" lon="-0.93435">
        <ele>2.2</ele>
        <time>2015-05-18T07:26:59.000Z</time>
      </trkpt>
      <trkpt lat="46.35896" lon="-0.93441">
        <ele>2.8</ele>
        <time>2015-05-18T07:27:10.000Z</time>
      </trkpt>
      <trkpt lat="46.35885" lon="-0.93446">
        <ele>2.8</ele>
        <time>2015-05-18T07:27:18.000Z</time>
      </trkpt>
      <trkpt lat="46.35871" lon="-0.93453">
        <ele>2.2</ele>
        <time>2015-05-18T07:27:29.000Z</time>
      </trkpt>
      <trkpt lat="46.35855" lon="-0.93461">
        <ele>2.2</ele>
        <time>2015-05-18T07:27:41.000Z</time>
      </trkpt>
      <trkpt lat="46.35843" lon="-0.93468">
        <ele>2.7</ele>
        <time>2015-05-18T07:27:51.000Z</time>
      </trkpt>
      <trkpt lat="46.35828" lon="-0.93474">
        <ele>2.7</ele>
        <time>2015-05-18T07:28:02.000Z</time>
      </trkpt>
      <trkpt lat="46.35817" lon="-0.93479">
        <ele>2.3</ele>
        <time>2015-05-18T07:28:10.000Z</time>
      </trkpt>
      <trkpt lat="46.35804" lon="-0.93483">
        <ele>2</ele>
        <time>2015-05-18T07:28:20.000Z</time>
      </trkpt>
      <trkpt lat="46.35799" lon="-0.93483">
        <ele>2</ele>
        <time>2015-05-18T07:28:23.000Z</time>
      </trkpt>
      <trkpt lat="46.35779" lon="-0.93489">
        <ele>2</ele>
        <time>2015-05-18T07:28:38.000Z</time>
      </trkpt>
      <trkpt lat="46.3577" lon="-0.93492">
        <ele>2.3</ele>
        <time>2015-05-18T07:28:45.000Z</time>
      </trkpt>
      <trkpt lat="46.35757" lon="-0.93496">
        <ele>2.8</ele>
        <time>2015-05-18T07:28:55.000Z</time>
      </trkpt>
      <trkpt lat="46.35742" lon="-0.93501">
        <ele>3</ele>
        <time>2015-05-18T07:29:06.000Z</time>
      </trkpt>
      <trkpt lat="46.35727" lon="-0.93502">
        <ele>2.9</ele>
        <time>2015-05-18T07:29:17.000Z</time>
      </trkpt>
      <trkpt lat="46.35712" lon="-0.93506">
        <ele>2.8</ele>
        <time>2015-05-18T07:29:28.000Z</time>
      </trkpt>
      <trkpt lat="46.35694" lon="-0.9351">
        <ele>2.6</ele>
        <time>2015-05-18T07:29:41.000Z</time>
      </trkpt>
      <trkpt lat="46.35679" lon="-0.93514">
        <ele>2.8</ele>
        <time>2015-05-18T07:29:52.000Z</time>
      </trkpt>
      <trkpt lat="46.35666" lon="-0.93517">
        <ele>3</ele>
        <time>2015-05-18T07:30:02.000Z</time>
      </trkpt>
      <trkpt lat="46.35648" lon="-0.93522">
        <ele>2.3</ele>
        <time>2015-05-18T07:30:15.000Z</time>
      </trkpt>
      <trkpt lat="46.35633" lon="-0.93526">
        <ele>2.2</ele>
        <time>2015-05-18T07:30:27.000Z</time>
      </trkpt>
      <trkpt lat="46.35618" lon="-0.93531">
        <ele>2.7</ele>
        <time>2015-05-18T07:30:39.000Z</time>
      </trkpt>
      <trkpt lat="46.35601" lon="-0.93534">
        <ele>2.8</ele>
        <time>2015-05-18T07:30:51.000Z</time>
      </trkpt>
      <trkpt lat="46.35585" lon="-0.93538">
        <ele>2.6</ele>
        <time>2015-05-18T07:31:03.000Z</time>
      </trkpt>
      <trkpt lat="46.35569" lon="-0.93541">
        <ele>2.3</ele>
        <time>2015-05-18T07:31:15.000Z</time>
      </trkpt>
      <trkpt lat="46.35554" lon="-0.93544">
        <ele>2</ele>
        <time>2015-05-18T07:31:26.000Z</time>
      </trkpt>
      <trkpt lat="46.35537" lon="-0.93547">
        <ele>2.5</ele>
        <time>2015-05-18T07:31:39.000Z</time>
      </trkpt>
      <trkpt lat="46.35525" lon="-0.93549">
        <ele>2.8</ele>
        <time>2015-05-18T07:31:48.000Z</time>
      </trkpt>
      <trkpt lat="46.3551" lon="-0.93552">
        <ele>2.9</ele>
        <time>2015-05-18T07:31:59.000Z</time>
      </trkpt>
      <trkpt lat="46.35497" lon="-0.93555">
        <ele>2.9</ele>
        <time>2015-05-18T07:32:09.000Z</time>
      </trkpt>
      <trkpt lat="46.35487" lon="-0.93557">
        <ele>2.5</ele>
        <time>2015-05-18T07:32:16.000Z</time>
      </trkpt>
      <trkpt lat="46.35476" lon="-0.93559">
        <ele>2.1</ele>
        <time>2015-05-18T07:32:24.000Z</time>
      </trkpt>
      <trkpt lat="46.35461" lon="-0.93563">
        <ele>2.4</ele>
        <time>2015-05-18T07:32:35.000Z</time>
      </trkpt>
      <trkpt lat="46.35448" lon="-0.93567">
        <ele>2.9</ele>
        <time>2015-05-18T07:32:45.000Z</time>
      </trkpt>
      <trkpt lat="46.35447" lon="-0.93569">
        <ele>2.9</ele>
        <time>2015-05-18T07:32:46.000Z</time>
      </trkpt>
      <trkpt lat="46.35448" lon="-0.93579">
        <ele>2.9</ele>
        <time>2015-05-18T07:32:52.000Z</time>
      </trkpt>
      <trkpt lat="46.35448" lon="-0.93581">
        <ele>2.9</ele>
        <time>2015-05-18T07:32:53.000Z</time>
      </trkpt>
      <trkpt lat="46.35453" lon="-0.93599">
        <ele>2.5</ele>
        <time>2015-05-18T07:33:03.000Z</time>
      </trkpt>
      <trkpt lat="46.35456" lon="-0.93614">
        <ele>2.4</ele>
        <time>2015-05-18T07:33:12.000Z</time>
      </trkpt>
      <trkpt lat="46.35459" lon="-0.9363">
        <ele>2.5</ele>
        <time>2015-05-18T07:33:21.000Z</time>
      </trkpt>
      <trkpt lat="46.35463" lon="-0.93647">
        <ele>2.3</ele>
        <time>2015-05-18T07:33:31.000Z</time>
      </trkpt>
      <trkpt lat="46.35469" lon="-0.93667">
        <ele>2.1</ele>
        <time>2015-05-18T07:33:41.000Z</time>
      </trkpt>
      <trkpt lat="46.35474" lon="-0.93685">
        <ele>2</ele>
        <time>2015-05-18T07:33:51.000Z</time>
      </trkpt>
      <trkpt lat="46.35481" lon="-0.9371">
        <ele>2</ele>
        <time>2015-05-18T07:34:05.000Z</time>
      </trkpt>
      <trkpt lat="46.35486" lon="-0.93732">
        <ele>2</ele>
        <time>2015-05-18T07:34:17.000Z</time>
      </trkpt>
      <trkpt lat="46.35492" lon="-0.93756">
        <ele>2</ele>
        <time>2015-05-18T07:34:30.000Z</time>
      </trkpt>
      <trkpt lat="46.35499" lon="-0.93782">
        <ele>2</ele>
        <time>2015-05-18T07:34:44.000Z</time>
      </trkpt>
      <trkpt lat="46.35505" lon="-0.93804">
        <ele>2</ele>
        <time>2015-05-18T07:34:56.000Z</time>
      </trkpt>
      <trkpt lat="46.35511" lon="-0.93825">
        <ele>2</ele>
        <time>2015-05-18T07:35:08.000Z</time>
      </trkpt>
      <trkpt lat="46.35516" lon="-0.93846">
        <ele>2</ele>
        <time>2015-05-18T07:35:20.000Z</time>
      </trkpt>
      <trkpt lat="46.35527" lon="-0.93891">
        <ele>2</ele>
        <time>2015-05-18T07:35:44.000Z</time>
      </trkpt>
      <trkpt lat="46.35533" lon="-0.93914">
        <ele>2</ele>
        <time>2015-05-18T07:35:57.000Z</time>
      </trkpt>
      <trkpt lat="46.35537" lon="-0.93928">
        <ele>2</ele>
        <time>2015-05-18T07:36:05.000Z</time>
      </trkpt>
      <trkpt lat="46.35542" lon="-0.93949">
        <ele>2</ele>
        <time>2015-05-18T07:36:17.000Z</time>
      </trkpt>
      <trkpt lat="46.35548" lon="-0.93967">
        <ele>2</ele>
        <time>2015-05-18T07:36:27.000Z</time>
      </trkpt>
      <trkpt lat="46.35548" lon="-0.93969">
        <ele>2</ele>
        <time>2015-05-18T07:36:28.000Z</time>
      </trkpt>
      <trkpt lat="46.35546" lon="-0.93972">
        <ele>2</ele>
        <time>2015-05-18T07:36:35.000Z</time>
      </trkpt>
      <trkpt lat="46.35547" lon="-0.93976">
        <ele>2</ele>
        <time>2015-05-18T07:36:42.000Z</time>
      </trkpt>
      <trkpt lat="46.35553" lon="-0.93986">
        <ele>2</ele>
        <time>2015-05-18T07:36:49.000Z</time>
      </trkpt>
      <trkpt lat="46.35561" lon="-0.94007">
        <ele>2</ele>
        <time>2015-05-18T07:37:01.000Z</time>
      </trkpt>
      <trkpt lat="46.35568" lon="-0.94032">
        <ele>2</ele>
        <time>2015-05-18T07:37:15.000Z</time>
      </trkpt>
      <trkpt lat="46.35573" lon="-0.94051">
        <ele>2</ele>
        <time>2015-05-18T07:37:25.000Z</time>
      </trkpt>
      <trkpt lat="46.35579" lon="-0.94071">
        <ele>2</ele>
        <time>2015-05-18T07:37:35.000Z</time>
      </trkpt>
      <trkpt lat="46.35584" lon="-0.9409">
        <ele>2</ele>
        <time>2015-05-18T07:37:45.000Z</time>
      </trkpt>
      <trkpt lat="46.35589" lon="-0.94112">
        <ele>2</ele>
        <time>2015-05-18T07:37:56.000Z</time>
      </trkpt>
      <trkpt lat="46.35596" lon="-0.94135">
        <ele>2</ele>
        <time>2015-05-18T07:38:09.000Z</time>
      </trkpt>
      <trkpt lat="46.35601" lon="-0.94156">
        <ele>2</ele>
        <time>2015-05-18T07:38:20.000Z</time>
      </trkpt>
      <trkpt lat="46.35607" lon="-0.94177">
        <ele>2</ele>
        <time>2015-05-18T07:38:31.000Z</time>
      </trkpt>
      <trkpt lat="46.35614" lon="-0.94199">
        <ele>1.9</ele>
        <time>2015-05-18T07:38:43.000Z</time>
      </trkpt>
      <trkpt lat="46.35621" lon="-0.94224">
        <ele>1.7</ele>
        <time>2015-05-18T07:38:56.000Z</time>
      </trkpt>
      <trkpt lat="46.35627" lon="-0.94243">
        <ele>1.9</ele>
        <time>2015-05-18T07:39:06.000Z</time>
      </trkpt>
      <trkpt lat="46.35631" lon="-0.94263">
        <ele>2</ele>
        <time>2015-05-18T07:39:16.000Z</time>
      </trkpt>
      <trkpt lat="46.35637" lon="-0.94284">
        <ele>2</ele>
        <time>2015-05-18T07:39:27.000Z</time>
      </trkpt>
      <trkpt lat="46.3564" lon="-0.94297">
        <ele>2</ele>
        <time>2015-05-18T07:39:34.000Z</time>
      </trkpt>
      <trkpt lat="46.35642" lon="-0.94305">
        <ele>2</ele>
        <time>2015-05-18T07:39:38.000Z</time>
      </trkpt>
      <trkpt lat="46.35648" lon="-0.94325">
        <ele>2</ele>
        <time>2015-05-18T07:39:48.000Z</time>
      </trkpt>
      <trkpt lat="46.35652" lon="-0.94342">
        <ele>2</ele>
        <time>2015-05-18T07:39:57.000Z</time>
      </trkpt>
      <trkpt lat="46.35659" lon="-0.94368">
        <ele>2</ele>
        <time>2015-05-18T07:40:10.000Z</time>
      </trkpt>
      <trkpt lat="46.35666" lon="-0.94393">
        <ele>2</ele>
        <time>2015-05-18T07:40:23.000Z</time>
      </trkpt>
      <trkpt lat="46.35678" lon="-0.94438">
        <ele>2</ele>
        <time>2015-05-18T07:40:46.000Z</time>
      </trkpt>
      <trkpt lat="46.35684" lon="-0.94463">
        <ele>2</ele>
        <time>2015-05-18T07:40:59.000Z</time>
      </trkpt>
      <trkpt lat="46.35691" lon="-0.94486">
        <ele>2</ele>
        <time>2015-05-18T07:41:11.000Z</time>
      </trkpt>
      <trkpt lat="46.35697" lon="-0.9451">
        <ele>2</ele>
        <time>2015-05-18T07:41:24.000Z</time>
      </trkpt>
      <trkpt lat="46.35703" lon="-0.94531">
        <ele>2</ele>
        <time>2015-05-18T07:41:35.000Z</time>
      </trkpt>
      <trkpt lat="46.35708" lon="-0.94548">
        <ele>2</ele>
        <time>2015-05-18T07:41:44.000Z</time>
      </trkpt>
      <trkpt lat="46.35714" lon="-0.94571">
        <ele>2</ele>
        <time>2015-05-18T07:41:56.000Z</time>
      </trkpt>
      <trkpt lat="46.3572" lon="-0.94595">
        <ele>2</ele>
        <time>2015-05-18T07:42:09.000Z</time>
      </trkpt>
      <trkpt lat="46.35727" lon="-0.94618">
        <ele>2</ele>
        <time>2015-05-18T07:42:21.000Z</time>
      </trkpt>
      <trkpt lat="46.35733" lon="-0.94642">
        <ele>2</ele>
        <time>2015-05-18T07:42:34.000Z</time>
      </trkpt>
      <trkpt lat="46.35736" lon="-0.94657">
        <ele>2</ele>
        <time>2015-05-18T07:42:42.000Z</time>
      </trkpt>
      <trkpt lat="46.3574" lon="-0.94671">
        <ele>2</ele>
        <time>2015-05-18T07:42:50.000Z</time>
      </trkpt>
      <trkpt lat="46.35745" lon="-0.94689">
        <ele>2</ele>
        <time>2015-05-18T07:43:00.000Z</time>
      </trkpt>
      <trkpt lat="46.3575" lon="-0.94705">
        <ele>2</ele>
        <time>2015-05-18T07:43:09.000Z</time>
      </trkpt>
      <trkpt lat="46.35756" lon="-0.94728">
        <ele>2</ele>
        <time>2015-05-18T07:43:22.000Z</time>
      </trkpt>
      <trkpt lat="46.3576" lon="-0.94745">
        <ele>2</ele>
        <time>2015-05-18T07:43:31.000Z</time>
      </trkpt>
      <trkpt lat="46.35766" lon="-0.94765">
        <ele>2</ele>
        <time>2015-05-18T07:43:42.000Z</time>
      </trkpt>
      <trkpt lat="46.35771" lon="-0.94784">
        <ele>2</ele>
        <time>2015-05-18T07:43:53.000Z</time>
      </trkpt>
      <trkpt lat="46.35776" lon="-0.94804">
        <ele>2</ele>
        <time>2015-05-18T07:44:04.000Z</time>
      </trkpt>
      <trkpt lat="46.35781" lon="-0.94824">
        <ele>2</ele>
        <time>2015-05-18T07:44:15.000Z</time>
      </trkpt>
      <trkpt lat="46.35786" lon="-0.94843">
        <ele>2</ele>
        <time>2015-05-18T07:44:26.000Z</time>
      </trkpt>
      <trkpt lat="46.35791" lon="-0.94862">
        <ele>2</ele>
        <time>2015-05-18T07:44:37.000Z</time>
      </trkpt>
      <trkpt lat="46.35795" lon="-0.94879">
        <ele>2</ele>
        <time>2015-05-18T07:44:46.000Z</time>
      </trkpt>
      <trkpt lat="46.358" lon="-0.94897">
        <ele>2</ele>
        <time>2015-05-18T07:44:57.000Z</time>
      </trkpt>
      <trkpt lat="46.35804" lon="-0.94913">
        <ele>2</ele>
        <time>2015-05-18T07:45:06.000Z</time>
      </trkpt>
      <trkpt lat="46.3581" lon="-0.94934">
        <ele>2</ele>
        <time>2015-05-18T07:45:18.000Z</time>
      </trkpt>
      <trkpt lat="46.35815" lon="-0.94955">
        <ele>2</ele>
        <time>2015-05-18T07:45:30.000Z</time>
      </trkpt>
      <trkpt lat="46.35818" lon="-0.94975">
        <ele>2</ele>
        <time>2015-05-18T07:45:41.000Z</time>
      </trkpt>
      <trkpt lat="46.35824" lon="-0.94996">
        <ele>2</ele>
        <time>2015-05-18T07:45:53.000Z</time>
      </trkpt>
      <trkpt lat="46.35828" lon="-0.95015">
        <ele>2</ele>
        <time>2015-05-18T07:46:03.000Z</time>
      </trkpt>
      <trkpt lat="46.35834" lon="-0.95034">
        <ele>2</ele>
        <time>2015-05-18T07:46:14.000Z</time>
      </trkpt>
      <trkpt lat="46.35845" lon="-0.95075">
        <ele>2</ele>
        <time>2015-05-18T07:46:37.000Z</time>
      </trkpt>
      <trkpt lat="46.35851" lon="-0.95096">
        <ele>2</ele>
        <time>2015-05-18T07:46:49.000Z</time>
      </trkpt>
      <trkpt lat="46.35856" lon="-0.95116">
        <ele>2</ele>
        <time>2015-05-18T07:47:00.000Z</time>
      </trkpt>
      <trkpt lat="46.35862" lon="-0.95138">
        <ele>2</ele>
        <time>2015-05-18T07:47:12.000Z</time>
      </trkpt>
      <trkpt lat="46.35866" lon="-0.95154">
        <ele>2</ele>
        <time>2015-05-18T07:47:21.000Z</time>
      </trkpt>
      <trkpt lat="46.3587" lon="-0.95173">
        <ele>2</ele>
        <time>2015-05-18T07:47:32.000Z</time>
      </trkpt>
      <trkpt lat="46.35876" lon="-0.9519">
        <ele>2</ele>
        <time>2015-05-18T07:47:42.000Z</time>
      </trkpt>
      <trkpt lat="46.35885" lon="-0.95201">
        <ele>2</ele>
        <time>2015-05-18T07:47:52.000Z</time>
      </trkpt>
      <trkpt lat="46.35894" lon="-0.95198">
        <ele>2</ele>
        <time>2015-05-18T07:47:59.000Z</time>
      </trkpt>
      <trkpt lat="46.35902" lon="-0.95187">
        <ele>2</ele>
        <time>2015-05-18T07:48:07.000Z</time>
      </trkpt>
      <trkpt lat="46.35912" lon="-0.95176">
        <ele>2</ele>
        <time>2015-05-18T07:48:16.000Z</time>
      </trkpt>
      <trkpt lat="46.35921" lon="-0.95165">
        <ele>2</ele>
        <time>2015-05-18T07:48:25.000Z</time>
      </trkpt>
      <trkpt lat="46.35933" lon="-0.95153">
        <ele>2.3</ele>
        <time>2015-05-18T07:48:36.000Z</time>
      </trkpt>
      <trkpt lat="46.35945" lon="-0.95141">
        <ele>2.9</ele>
        <time>2015-05-18T07:48:46.000Z</time>
      </trkpt>
      <trkpt lat="46.35955" lon="-0.95132">
        <ele>2.6</ele>
        <time>2015-05-18T07:48:55.000Z</time>
      </trkpt>
      <trkpt lat="46.35967" lon="-0.95119">
        <ele>2.6</ele>
        <time>2015-05-18T07:49:05.000Z</time>
      </trkpt>
      <trkpt lat="46.35979" lon="-0.95107">
        <ele>2.7</ele>
        <time>2015-05-18T07:49:15.000Z</time>
      </trkpt>
      <trkpt lat="46.35989" lon="-0.95097">
        <ele>2.5</ele>
        <time>2015-05-18T07:49:24.000Z</time>
      </trkpt>
      <trkpt lat="46.36002" lon="-0.95082">
        <ele>2.9</ele>
        <time>2015-05-18T07:49:36.000Z</time>
      </trkpt>
      <trkpt lat="46.36013" lon="-0.95068">
        <ele>2.2</ele>
        <time>2015-05-18T07:49:47.000Z</time>
      </trkpt>
      <trkpt lat="46.36022" lon="-0.95058">
        <ele>2</ele>
        <time>2015-05-18T07:49:55.000Z</time>
      </trkpt>
      <trkpt lat="46.36031" lon="-0.95046">
        <ele>2</ele>
        <time>2015-05-18T07:50:04.000Z</time>
      </trkpt>
      <trkpt lat="46.36039" lon="-0.95036">
        <ele>2</ele>
        <time>2015-05-18T07:50:12.000Z</time>
      </trkpt>
      <trkpt lat="46.36046" lon="-0.95025">
        <ele>2</ele>
        <time>2015-05-18T07:50:20.000Z</time>
      </trkpt>
      <trkpt lat="46.36054" lon="-0.95015">
        <ele>2</ele>
        <time>2015-05-18T07:50:28.000Z</time>
      </trkpt>
      <trkpt lat="46.36062" lon="-0.95004">
        <ele>2</ele>
        <time>2015-05-18T07:50:36.000Z</time>
      </trkpt>
      <trkpt lat="46.36064" lon="-0.95003">
        <ele>2</ele>
        <time>2015-05-18T07:50:37.000Z</time>
      </trkpt>
      <trkpt lat="46.36071" lon="-0.95">
        <ele>2</ele>
        <time>2015-05-18T07:50:43.000Z</time>
      </trkpt>
      <trkpt lat="46.36079" lon="-0.95006">
        <ele>2</ele>
        <time>2015-05-18T07:50:50.000Z</time>
      </trkpt>
      <trkpt lat="46.36089" lon="-0.95024">
        <ele>1.8</ele>
        <time>2015-05-18T07:51:02.000Z</time>
      </trkpt>
      <trkpt lat="46.36096" lon="-0.95037">
        <ele>1.7</ele>
        <time>2015-05-18T07:51:11.000Z</time>
      </trkpt>
      <trkpt lat="46.36112" lon="-0.95069">
        <ele>2</ele>
        <time>2015-05-18T07:51:31.000Z</time>
      </trkpt>
      <trkpt lat="46.36123" lon="-0.95088">
        <ele>2</ele>
        <time>2015-05-18T07:51:44.000Z</time>
      </trkpt>
      <trkpt lat="46.36132" lon="-0.95103">
        <ele>2</ele>
        <time>2015-05-18T07:51:54.000Z</time>
      </trkpt>
      <trkpt lat="46.3614" lon="-0.95119">
        <ele>2</ele>
        <time>2015-05-18T07:52:04.000Z</time>
      </trkpt>
      <trkpt lat="46.36148" lon="-0.95133">
        <ele>2</ele>
        <time>2015-05-18T07:52:13.000Z</time>
      </trkpt>
      <trkpt lat="46.36156" lon="-0.95149">
        <ele>2</ele>
        <time>2015-05-18T07:52:23.000Z</time>
      </trkpt>
      <trkpt lat="46.36167" lon="-0.95166">
        <ele>2</ele>
        <time>2015-05-18T07:52:35.000Z</time>
      </trkpt>
      <trkpt lat="46.36177" lon="-0.95185">
        <ele>2</ele>
        <time>2015-05-18T07:52:47.000Z</time>
      </trkpt>
      <trkpt lat="46.36184" lon="-0.95197">
        <ele>2</ele>
        <time>2015-05-18T07:52:55.000Z</time>
      </trkpt>
      <trkpt lat="46.36189" lon="-0.95207">
        <ele>2</ele>
        <time>2015-05-18T07:53:02.000Z</time>
      </trkpt>
      <trkpt lat="46.36199" lon="-0.95223">
        <ele>2</ele>
        <time>2015-05-18T07:53:13.000Z</time>
      </trkpt>
      <trkpt lat="46.36209" lon="-0.9524">
        <ele>2</ele>
        <time>2015-05-18T07:53:24.000Z</time>
      </trkpt>
      <trkpt lat="46.36219" lon="-0.95259">
        <ele>2</ele>
        <time>2015-05-18T07:53:37.000Z</time>
      </trkpt>
      <trkpt lat="46.36228" lon="-0.95274">
        <ele>2</ele>
        <time>2015-05-18T07:53:47.000Z</time>
      </trkpt>
      <trkpt lat="46.36236" lon="-0.95289">
        <ele>2</ele>
        <time>2015-05-18T07:53:57.000Z</time>
      </trkpt>
      <trkpt lat="46.36246" lon="-0.95305">
        <ele>2</ele>
        <time>2015-05-18T07:54:08.000Z</time>
      </trkpt>
      <trkpt lat="46.36257" lon="-0.95324">
        <ele>2</ele>
        <time>2015-05-18T07:54:21.000Z</time>
      </trkpt>
      <trkpt lat="46.36268" lon="-0.95344">
        <ele>2</ele>
        <time>2015-05-18T07:54:35.000Z</time>
      </trkpt>
      <trkpt lat="46.36275" lon="-0.95357">
        <ele>2</ele>
        <time>2015-05-18T07:54:44.000Z</time>
      </trkpt>
      <trkpt lat="46.36282" lon="-0.9537">
        <ele>2.3</ele>
        <time>2015-05-18T07:54:53.000Z</time>
      </trkpt>
      <trkpt lat="46.3629" lon="-0.95383">
        <ele>2.4</ele>
        <time>2015-05-18T07:55:02.000Z</time>
      </trkpt>
      <trkpt lat="46.36298" lon="-0.95398">
        <ele>2.2</ele>
        <time>2015-05-18T07:55:12.000Z</time>
      </trkpt>
      <trkpt lat="46.36307" lon="-0.95414">
        <ele>2</ele>
        <time>2015-05-18T07:55:23.000Z</time>
      </trkpt>
      <trkpt lat="46.36315" lon="-0.95428">
        <ele>2</ele>
        <time>2015-05-18T07:55:33.000Z</time>
      </trkpt>
      <trkpt lat="46.36323" lon="-0.95443">
        <ele>2</ele>
        <time>2015-05-18T07:55:43.000Z</time>
      </trkpt>
      <trkpt lat="46.36332" lon="-0.95461">
        <ele>2</ele>
        <time>2015-05-18T07:55:55.000Z</time>
      </trkpt>
      <trkpt lat="46.36342" lon="-0.95479">
        <ele>2</ele>
        <time>2015-05-18T07:56:07.000Z</time>
      </trkpt>
      <trkpt lat="46.36349" lon="-0.95491">
        <ele>2</ele>
        <time>2015-05-18T07:56:15.000Z</time>
      </trkpt>
      <trkpt lat="46.36358" lon="-0.95507">
        <ele>2</ele>
        <time>2015-05-18T07:56:26.000Z</time>
      </trkpt>
      <trkpt lat="46.36367" lon="-0.95523">
        <ele>2</ele>
        <time>2015-05-18T07:56:37.000Z</time>
      </trkpt>
      <trkpt lat="46.36374" lon="-0.95536">
        <ele>2</ele>
        <time>2015-05-18T07:56:46.000Z</time>
      </trkpt>
      <trkpt lat="46.36382" lon="-0.95552">
        <ele>2</ele>
        <time>2015-05-18T07:56:56.000Z</time>
      </trkpt>
      <trkpt lat="46.36392" lon="-0.95568">
        <ele>2</ele>
        <time>2015-05-18T07:57:07.000Z</time>
      </trkpt>
      <trkpt lat="46.36401" lon="-0.95585">
        <ele>2</ele>
        <time>2015-05-18T07:57:18.000Z</time>
      </trkpt>
      <trkpt lat="46.36411" lon="-0.95603">
        <ele>2</ele>
        <time>2015-05-18T07:57:30.000Z</time>
      </trkpt>
      <trkpt lat="46.36421" lon="-0.9562">
        <ele>2</ele>
        <time>2015-05-18T07:57:41.000Z</time>
      </trkpt>
      <trkpt lat="46.36429" lon="-0.95634">
        <ele>2</ele>
        <time>2015-05-18T07:57:50.000Z</time>
      </trkpt>
      <trkpt lat="46.36438" lon="-0.95651">
        <ele>2</ele>
        <time>2015-05-18T07:58:01.000Z</time>
      </trkpt>
      <trkpt lat="46.36448" lon="-0.95667">
        <ele>2</ele>
        <time>2015-05-18T07:58:12.000Z</time>
      </trkpt>
      <trkpt lat="46.36458" lon="-0.95685">
        <ele>2</ele>
        <time>2015-05-18T07:58:24.000Z</time>
      </trkpt>
      <trkpt lat="46.36476" lon="-0.95716">
        <ele>2</ele>
        <time>2015-05-18T07:58:45.000Z</time>
      </trkpt>
      <trkpt lat="46.36485" lon="-0.95732">
        <ele>2</ele>
        <time>2015-05-18T07:58:56.000Z</time>
      </trkpt>
      <trkpt lat="46.36494" lon="-0.95749">
        <ele>2</ele>
        <time>2015-05-18T07:59:07.000Z</time>
      </trkpt>
      <trkpt lat="46.36504" lon="-0.95767">
        <ele>2</ele>
        <time>2015-05-18T07:59:19.000Z</time>
      </trkpt>
      <trkpt lat="46.36513" lon="-0.95784">
        <ele>2</ele>
        <time>2015-05-18T07:59:30.000Z</time>
      </trkpt>
      <trkpt lat="46.3652" lon="-0.95797">
        <ele>2</ele>
        <time>2015-05-18T07:59:39.000Z</time>
      </trkpt>
      <trkpt lat="46.36529" lon="-0.95812">
        <ele>2</ele>
        <time>2015-05-18T07:59:49.000Z</time>
      </trkpt>
      <trkpt lat="46.36536" lon="-0.95826">
        <ele>2</ele>
        <time>2015-05-18T07:59:58.000Z</time>
      </trkpt>
      <trkpt lat="46.36546" lon="-0.95844">
        <ele>2</ele>
        <time>2015-05-18T08:00:10.000Z</time>
      </trkpt>
      <trkpt lat="46.36554" lon="-0.95857">
        <ele>2</ele>
        <time>2015-05-18T08:00:19.000Z</time>
      </trkpt>
      <trkpt lat="46.36562" lon="-0.95873">
        <ele>2</ele>
        <time>2015-05-18T08:00:29.000Z</time>
      </trkpt>
      <trkpt lat="46.36573" lon="-0.95894">
        <ele>2</ele>
        <time>2015-05-18T08:00:42.000Z</time>
      </trkpt>
      <trkpt lat="46.3658" lon="-0.95907">
        <ele>2</ele>
        <time>2015-05-18T08:00:51.000Z</time>
      </trkpt>
      <trkpt lat="46.36588" lon="-0.9592">
        <ele>2</ele>
        <time>2015-05-18T08:01:00.000Z</time>
      </trkpt>
      <trkpt lat="46.3659" lon="-0.95922">
        <ele>2</ele>
        <time>2015-05-18T08:01:06.000Z</time>
      </trkpt>
      <trkpt lat="46.36593" lon="-0.95925">
        <ele>2</ele>
        <time>2015-05-18T08:01:28.000Z</time>
      </trkpt>
      <trkpt lat="46.36593" lon="-0.95926">
        <ele>2</ele>
        <time>2015-05-18T08:01:34.000Z</time>
      </trkpt>
      <trkpt lat="46.36592" lon="-0.95928">
        <ele>2</ele>
        <time>2015-05-18T08:01:41.000Z</time>
      </trkpt>
      <trkpt lat="46.36595" lon="-0.95927">
        <ele>2</ele>
        <time>2015-05-18T08:01:55.000Z</time>
      </trkpt>
      <trkpt lat="46.36597" lon="-0.95931">
        <ele>2</ele>
        <time>2015-05-18T08:02:01.000Z</time>
      </trkpt>
      <trkpt lat="46.36598" lon="-0.95935">
        <ele>2</ele>
        <time>2015-05-18T08:02:06.000Z</time>
      </trkpt>
      <trkpt lat="46.36602" lon="-0.95942">
        <ele>2</ele>
        <time>2015-05-18T08:02:12.000Z</time>
      </trkpt>
      <trkpt lat="46.36616" lon="-0.95972">
        <ele>2</ele>
        <time>2015-05-18T08:02:34.000Z</time>
      </trkpt>
      <trkpt lat="46.36624" lon="-0.95988">
        <ele>2</ele>
        <time>2015-05-18T08:02:44.000Z</time>
      </trkpt>
      <trkpt lat="46.36628" lon="-0.95996">
        <ele>2</ele>
        <time>2015-05-18T08:02:49.000Z</time>
      </trkpt>
      <trkpt lat="46.36629" lon="-0.95998">
        <ele>2</ele>
        <time>2015-05-18T08:02:51.000Z</time>
      </trkpt>
      <trkpt lat="46.36636" lon="-0.96011">
        <ele>2</ele>
        <time>2015-05-18T08:02:59.000Z</time>
      </trkpt>
      <trkpt lat="46.36642" lon="-0.96022">
        <ele>2</ele>
        <time>2015-05-18T08:03:07.000Z</time>
      </trkpt>
      <trkpt lat="46.36649" lon="-0.96034">
        <ele>2</ele>
        <time>2015-05-18T08:03:15.000Z</time>
      </trkpt>
      <trkpt lat="46.36655" lon="-0.96044">
        <ele>2</ele>
        <time>2015-05-18T08:03:22.000Z</time>
      </trkpt>
      <trkpt lat="46.36664" lon="-0.96059">
        <ele>2</ele>
        <time>2015-05-18T08:03:33.000Z</time>
      </trkpt>
      <trkpt lat="46.36672" lon="-0.96074">
        <ele>1.9</ele>
        <time>2015-05-18T08:03:43.000Z</time>
      </trkpt>
      <trkpt lat="46.36679" lon="-0.96084">
        <ele>1.6</ele>
        <time>2015-05-18T08:03:50.000Z</time>
      </trkpt>
      <trkpt lat="46.36684" lon="-0.96091">
        <ele>1.6</ele>
        <time>2015-05-18T08:03:56.000Z</time>
      </trkpt>
      <trkpt lat="46.36694" lon="-0.96102">
        <ele>1.7</ele>
        <time>2015-05-18T08:04:05.000Z</time>
      </trkpt>
      <trkpt lat="46.36705" lon="-0.96102">
        <ele>1.8</ele>
        <time>2015-05-18T08:04:13.000Z</time>
      </trkpt>
      <trkpt lat="46.36714" lon="-0.96094">
        <ele>1.8</ele>
        <time>2015-05-18T08:04:21.000Z</time>
      </trkpt>
      <trkpt lat="46.36723" lon="-0.96082">
        <ele>2</ele>
        <time>2015-05-18T08:04:31.000Z</time>
      </trkpt>
      <trkpt lat="46.36732" lon="-0.96071">
        <ele>2</ele>
        <time>2015-05-18T08:04:41.000Z</time>
      </trkpt>
      <trkpt lat="46.3674" lon="-0.96062">
        <ele>2</ele>
        <time>2015-05-18T08:04:51.000Z</time>
      </trkpt>
      <trkpt lat="46.36744" lon="-0.96055">
        <ele>2</ele>
        <time>2015-05-18T08:04:59.000Z</time>
      </trkpt>
      <trkpt lat="46.36744" lon="-0.96054">
        <ele>2</ele>
        <time>2015-05-18T08:05:18.000Z</time>
      </trkpt>
      <trkpt lat="46.36747" lon="-0.9605">
        <ele>2</ele>
        <time>2015-05-18T08:05:28.000Z</time>
      </trkpt>
      <trkpt lat="46.36755" lon="-0.96042">
        <ele>2</ele>
        <time>2015-05-18T08:05:38.000Z</time>
      </trkpt>
      <trkpt lat="46.36762" lon="-0.96034">
        <ele>2</ele>
        <time>2015-05-18T08:05:47.000Z</time>
      </trkpt>
      <trkpt lat="46.36763" lon="-0.96033">
        <ele>2</ele>
        <time>2015-05-18T08:05:48.000Z</time>
      </trkpt>
      <trkpt lat="46.36767" lon="-0.96028">
        <ele>2</ele>
        <time>2015-05-18T08:05:55.000Z</time>
      </trkpt>
      <trkpt lat="46.36769" lon="-0.96026">
        <ele>2</ele>
        <time>2015-05-18T08:06:03.000Z</time>
      </trkpt>
      <trkpt lat="46.36771" lon="-0.96023">
        <ele>2</ele>
        <time>2015-05-18T08:06:05.000Z</time>
      </trkpt>
      <trkpt lat="46.36775" lon="-0.96018">
        <ele>2</ele>
        <time>2015-05-18T08:06:14.000Z</time>
      </trkpt>
      <trkpt lat="46.36776" lon="-0.96017">
        <ele>2</ele>
        <time>2015-05-18T08:06:22.000Z</time>
      </trkpt>
      <trkpt lat="46.36779" lon="-0.96015">
        <ele>2</ele>
        <time>2015-05-18T08:09:27.000Z</time>
      </trkpt>
      <trkpt lat="46.36781" lon="-0.96013">
        <ele>2</ele>
        <time>2015-05-18T08:09:32.000Z</time>
      </trkpt>
      <trkpt lat="46.36781" lon="-0.96013">
        <ele>2</ele>
        <time>2015-05-18T08:09:38.000Z</time>
      </trkpt>
      <trkpt lat="46.36785" lon="-0.96008">
        <ele>2</ele>
        <time>2015-05-18T08:10:04.000Z</time>
      </trkpt>
      <trkpt lat="46.36791" lon="-0.96002">
        <ele>2</ele>
        <time>2015-05-18T08:10:12.000Z</time>
      </trkpt>
      <trkpt lat="46.36798" lon="-0.95995">
        <ele>2</ele>
        <time>2015-05-18T08:10:21.000Z</time>
      </trkpt>
      <trkpt lat="46.36802" lon="-0.95989">
        <ele>2</ele>
        <time>2015-05-18T08:10:27.000Z</time>
      </trkpt>
      <trkpt lat="46.36805" lon="-0.95985">
        <ele>2</ele>
        <time>2015-05-18T08:10:31.000Z</time>
      </trkpt>
      <trkpt lat="46.36815" lon="-0.95972">
        <ele>2</ele>
        <time>2015-05-18T08:10:43.000Z</time>
      </trkpt>
      <trkpt lat="46.36827" lon="-0.95958">
        <ele>1.9</ele>
        <time>2015-05-18T08:10:56.000Z</time>
      </trkpt>
      <trkpt lat="46.36838" lon="-0.95945">
        <ele>2</ele>
        <time>2015-05-18T08:11:07.000Z</time>
      </trkpt>
      <trkpt lat="46.36849" lon="-0.95931">
        <ele>1.8</ele>
        <time>2015-05-18T08:11:19.000Z</time>
      </trkpt>
      <trkpt lat="46.36857" lon="-0.9592">
        <ele>1.9</ele>
        <time>2015-05-18T08:11:28.000Z</time>
      </trkpt>
      <trkpt lat="46.36867" lon="-0.95909">
        <ele>2</ele>
        <time>2015-05-18T08:11:38.000Z</time>
      </trkpt>
      <trkpt lat="46.36881" lon="-0.95893">
        <ele>2</ele>
        <time>2015-05-18T08:11:52.000Z</time>
      </trkpt>
      <trkpt lat="46.36893" lon="-0.9588">
        <ele>2</ele>
        <time>2015-05-18T08:12:04.000Z</time>
      </trkpt>
      <trkpt lat="46.36905" lon="-0.95865">
        <ele>2</ele>
        <time>2015-05-18T08:12:17.000Z</time>
      </trkpt>
      <trkpt lat="46.36919" lon="-0.95849">
        <ele>2</ele>
        <time>2015-05-18T08:12:30.000Z</time>
      </trkpt>
      <trkpt lat="46.36931" lon="-0.95836">
        <ele>2</ele>
        <time>2015-05-18T08:12:42.000Z</time>
      </trkpt>
      <trkpt lat="46.36942" lon="-0.95822">
        <ele>2</ele>
        <time>2015-05-18T08:12:53.000Z</time>
      </trkpt>
      <trkpt lat="46.36952" lon="-0.95812">
        <ele>2</ele>
        <time>2015-05-18T08:13:02.000Z</time>
      </trkpt>
      <trkpt lat="46.36964" lon="-0.95797">
        <ele>2</ele>
        <time>2015-05-18T08:13:14.000Z</time>
      </trkpt>
      <trkpt lat="46.36975" lon="-0.95784">
        <ele>2</ele>
        <time>2015-05-18T08:13:25.000Z</time>
      </trkpt>
      <trkpt lat="46.36987" lon="-0.9577">
        <ele>2</ele>
        <time>2015-05-18T08:13:36.000Z</time>
      </trkpt>
      <trkpt lat="46.36997" lon="-0.95759">
        <ele>2</ele>
        <time>2015-05-18T08:13:46.000Z</time>
      </trkpt>
      <trkpt lat="46.37004" lon="-0.9575">
        <ele>2</ele>
        <time>2015-05-18T08:13:54.000Z</time>
      </trkpt>
      <trkpt lat="46.37016" lon="-0.95736">
        <ele>2</ele>
        <time>2015-05-18T08:14:05.000Z</time>
      </trkpt>
      <trkpt lat="46.37027" lon="-0.95723">
        <ele>2</ele>
        <time>2015-05-18T08:14:16.000Z</time>
      </trkpt>
      <trkpt lat="46.3704" lon="-0.95707">
        <ele>2</ele>
        <time>2015-05-18T08:14:29.000Z</time>
      </trkpt>
      <trkpt lat="46.37052" lon="-0.95693">
        <ele>2</ele>
        <time>2015-05-18T08:14:41.000Z</time>
      </trkpt>
      <trkpt lat="46.37063" lon="-0.9568">
        <ele>2</ele>
        <time>2015-05-18T08:14:51.000Z</time>
      </trkpt>
      <trkpt lat="46.37071" lon="-0.9567">
        <ele>2</ele>
        <time>2015-05-18T08:14:59.000Z</time>
      </trkpt>
      <trkpt lat="46.37079" lon="-0.9566">
        <ele>2</ele>
        <time>2015-05-18T08:15:07.000Z</time>
      </trkpt>
      <trkpt lat="46.37091" lon="-0.95646">
        <ele>2</ele>
        <time>2015-05-18T08:15:18.000Z</time>
      </trkpt>
      <trkpt lat="46.37104" lon="-0.9563">
        <ele>2</ele>
        <time>2015-05-18T08:15:31.000Z</time>
      </trkpt>
      <trkpt lat="46.37116" lon="-0.95617">
        <ele>2</ele>
        <time>2015-05-18T08:15:42.000Z</time>
      </trkpt>
      <trkpt lat="46.37128" lon="-0.95603">
        <ele>2</ele>
        <time>2015-05-18T08:15:53.000Z</time>
      </trkpt>
      <trkpt lat="46.37138" lon="-0.95591">
        <ele>2</ele>
        <time>2015-05-18T08:16:03.000Z</time>
      </trkpt>
      <trkpt lat="46.37148" lon="-0.95579">
        <ele>2</ele>
        <time>2015-05-18T08:16:13.000Z</time>
      </trkpt>
      <trkpt lat="46.37158" lon="-0.95567">
        <ele>2</ele>
        <time>2015-05-18T08:16:23.000Z</time>
      </trkpt>
      <trkpt lat="46.37171" lon="-0.95552">
        <ele>2</ele>
        <time>2015-05-18T08:16:35.000Z</time>
      </trkpt>
      <trkpt lat="46.37183" lon="-0.95538">
        <ele>2</ele>
        <time>2015-05-18T08:16:47.000Z</time>
      </trkpt>
      <trkpt lat="46.37197" lon="-0.95523">
        <ele>2</ele>
        <time>2015-05-18T08:17:00.000Z</time>
      </trkpt>
      <trkpt lat="46.37211" lon="-0.95505">
        <ele>2</ele>
        <time>2015-05-18T08:17:14.000Z</time>
      </trkpt>
      <trkpt lat="46.37223" lon="-0.9549">
        <ele>2</ele>
        <time>2015-05-18T08:17:26.000Z</time>
      </trkpt>
      <trkpt lat="46.37236" lon="-0.95475">
        <ele>2</ele>
        <time>2015-05-18T08:17:39.000Z</time>
      </trkpt>
      <trkpt lat="46.37248" lon="-0.95461">
        <ele>2</ele>
        <time>2015-05-18T08:17:50.000Z</time>
      </trkpt>
      <trkpt lat="46.37259" lon="-0.95447">
        <ele>2</ele>
        <time>2015-05-18T08:18:01.000Z</time>
      </trkpt>
      <trkpt lat="46.37271" lon="-0.95433">
        <ele>2</ele>
        <time>2015-05-18T08:18:13.000Z</time>
      </trkpt>
      <trkpt lat="46.37284" lon="-0.95419">
        <ele>2</ele>
        <time>2015-05-18T08:18:25.000Z</time>
      </trkpt>
      <trkpt lat="46.37294" lon="-0.95405">
        <ele>2</ele>
        <time>2015-05-18T08:18:36.000Z</time>
      </trkpt>
      <trkpt lat="46.37308" lon="-0.9539">
        <ele>2</ele>
        <time>2015-05-18T08:18:49.000Z</time>
      </trkpt>
      <trkpt lat="46.3731" lon="-0.95388">
        <ele>2</ele>
        <time>2015-05-18T08:18:51.000Z</time>
      </trkpt>
      <trkpt lat="46.37319" lon="-0.95377">
        <ele>2</ele>
        <time>2015-05-18T08:19:00.000Z</time>
      </trkpt>
      <trkpt lat="46.3733" lon="-0.95364">
        <ele>2</ele>
        <time>2015-05-18T08:19:11.000Z</time>
      </trkpt>
      <trkpt lat="46.37344" lon="-0.95349">
        <ele>2</ele>
        <time>2015-05-18T08:19:25.000Z</time>
      </trkpt>
      <trkpt lat="46.37357" lon="-0.95333">
        <ele>2</ele>
        <time>2015-05-18T08:19:38.000Z</time>
      </trkpt>
      <trkpt lat="46.37369" lon="-0.9532">
        <ele>2</ele>
        <time>2015-05-18T08:19:49.000Z</time>
      </trkpt>
      <trkpt lat="46.3738" lon="-0.95308">
        <ele>2</ele>
        <time>2015-05-18T08:19:59.000Z</time>
      </trkpt>
      <trkpt lat="46.37392" lon="-0.95294">
        <ele>2</ele>
        <time>2015-05-18T08:20:10.000Z</time>
      </trkpt>
      <trkpt lat="46.37404" lon="-0.9528">
        <ele>2</ele>
        <time>2015-05-18T08:20:22.000Z</time>
      </trkpt>
      <trkpt lat="46.37415" lon="-0.95268">
        <ele>2</ele>
        <time>2015-05-18T08:20:33.000Z</time>
      </trkpt>
      <trkpt lat="46.37427" lon="-0.95253">
        <ele>2</ele>
        <time>2015-05-18T08:20:45.000Z</time>
      </trkpt>
      <trkpt lat="46.37439" lon="-0.9524">
        <ele>2</ele>
        <time>2015-05-18T08:20:56.000Z</time>
      </trkpt>
      <trkpt lat="46.37452" lon="-0.95225">
        <ele>2</ele>
        <time>2015-05-18T08:21:09.000Z</time>
      </trkpt>
      <trkpt lat="46.37463" lon="-0.95213">
        <ele>2</ele>
        <time>2015-05-18T08:21:19.000Z</time>
      </trkpt>
      <trkpt lat="46.37472" lon="-0.95202">
        <ele>2</ele>
        <time>2015-05-18T08:21:28.000Z</time>
      </trkpt>
      <trkpt lat="46.37484" lon="-0.95188">
        <ele>2</ele>
        <time>2015-05-18T08:21:39.000Z</time>
      </trkpt>
      <trkpt lat="46.37495" lon="-0.95175">
        <ele>2</ele>
        <time>2015-05-18T08:21:50.000Z</time>
      </trkpt>
      <trkpt lat="46.37507" lon="-0.95162">
        <ele>2</ele>
        <time>2015-05-18T08:22:01.000Z</time>
      </trkpt>
      <trkpt lat="46.37519" lon="-0.95148">
        <ele>2</ele>
        <time>2015-05-18T08:22:12.000Z</time>
      </trkpt>
      <trkpt lat="46.37528" lon="-0.95137">
        <ele>2</ele>
        <time>2015-05-18T08:22:21.000Z</time>
      </trkpt>
      <trkpt lat="46.3754" lon="-0.95124">
        <ele>2</ele>
        <time>2015-05-18T08:22:32.000Z</time>
      </trkpt>
      <trkpt lat="46.37549" lon="-0.95113">
        <ele>2</ele>
        <time>2015-05-18T08:22:41.000Z</time>
      </trkpt>
      <trkpt lat="46.37557" lon="-0.95103">
        <ele>2</ele>
        <time>2015-05-18T08:22:49.000Z</time>
      </trkpt>
      <trkpt lat="46.37566" lon="-0.95092">
        <ele>2</ele>
        <time>2015-05-18T08:22:58.000Z</time>
      </trkpt>
      <trkpt lat="46.37576" lon="-0.95081">
        <ele>2</ele>
        <time>2015-05-18T08:23:07.000Z</time>
      </trkpt>
      <trkpt lat="46.37587" lon="-0.95068">
        <ele>2</ele>
        <time>2015-05-18T08:23:18.000Z</time>
      </trkpt>
      <trkpt lat="46.37597" lon="-0.95056">
        <ele>2</ele>
        <time>2015-05-18T08:23:28.000Z</time>
      </trkpt>
      <trkpt lat="46.37607" lon="-0.95043">
        <ele>2</ele>
        <time>2015-05-18T08:23:38.000Z</time>
      </trkpt>
      <trkpt lat="46.37616" lon="-0.95032">
        <ele>2</ele>
        <time>2015-05-18T08:23:47.000Z</time>
      </trkpt>
      <trkpt lat="46.3763" lon="-0.95016">
        <ele>2</ele>
        <time>2015-05-18T08:24:00.000Z</time>
      </trkpt>
      <trkpt lat="46.37642" lon="-0.95001">
        <ele>2</ele>
        <time>2015-05-18T08:24:12.000Z</time>
      </trkpt>
      <trkpt lat="46.37663" lon="-0.94975">
        <ele>2</ele>
        <time>2015-05-18T08:24:33.000Z</time>
      </trkpt>
      <trkpt lat="46.37674" lon="-0.94962">
        <ele>2</ele>
        <time>2015-05-18T08:24:44.000Z</time>
      </trkpt>
      <trkpt lat="46.37689" lon="-0.94956">
        <ele>2</ele>
        <time>2015-05-18T08:24:55.000Z</time>
      </trkpt>
      <trkpt lat="46.377" lon="-0.94965">
        <ele>2</ele>
        <time>2015-05-18T08:25:04.000Z</time>
      </trkpt>
      <trkpt lat="46.3771" lon="-0.94984">
        <ele>2.2</ele>
        <time>2015-05-18T08:25:16.000Z</time>
      </trkpt>
      <trkpt lat="46.37716" lon="-0.94995">
        <ele>2.6</ele>
        <time>2015-05-18T08:25:23.000Z</time>
      </trkpt>
      <trkpt lat="46.37727" lon="-0.95015">
        <ele>3</ele>
        <time>2015-05-18T08:25:36.000Z</time>
      </trkpt>
      <trkpt lat="46.37736" lon="-0.95032">
        <ele>2.9</ele>
        <time>2015-05-18T08:25:47.000Z</time>
      </trkpt>
      <trkpt lat="46.37742" lon="-0.95039">
        <ele>2.9</ele>
        <time>2015-05-18T08:25:53.000Z</time>
      </trkpt>
      <trkpt lat="46.37749" lon="-0.95036">
        <ele>3</ele>
        <time>2015-05-18T08:25:59.000Z</time>
      </trkpt>
      <trkpt lat="46.37756" lon="-0.95027">
        <ele>3</ele>
        <time>2015-05-18T08:26:07.000Z</time>
      </trkpt>
      <trkpt lat="46.37764" lon="-0.95017">
        <ele>3</ele>
        <time>2015-05-18T08:26:15.000Z</time>
      </trkpt>
      <trkpt lat="46.37775" lon="-0.95006">
        <ele>3</ele>
        <time>2015-05-18T08:26:24.000Z</time>
      </trkpt>
      <trkpt lat="46.37784" lon="-0.94995">
        <ele>2.8</ele>
        <time>2015-05-18T08:26:33.000Z</time>
      </trkpt>
      <trkpt lat="46.37792" lon="-0.94985">
        <ele>2.8</ele>
        <time>2015-05-18T08:26:41.000Z</time>
      </trkpt>
      <trkpt lat="46.37799" lon="-0.94977">
        <ele>2.9</ele>
        <time>2015-05-18T08:26:48.000Z</time>
      </trkpt>
      <trkpt lat="46.37809" lon="-0.94963">
        <ele>2.7</ele>
        <time>2015-05-18T08:26:58.000Z</time>
      </trkpt>
      <trkpt lat="46.37816" lon="-0.94955">
        <ele>2.6</ele>
        <time>2015-05-18T08:27:05.000Z</time>
      </trkpt>
      <trkpt lat="46.37823" lon="-0.94946">
        <ele>2.7</ele>
        <time>2015-05-18T08:27:12.000Z</time>
      </trkpt>
      <trkpt lat="46.37832" lon="-0.94936">
        <ele>2.7</ele>
        <time>2015-05-18T08:27:21.000Z</time>
      </trkpt>
      <trkpt lat="46.37832" lon="-0.94935">
        <ele>2.6</ele>
        <time>2015-05-18T08:27:22.000Z</time>
      </trkpt>
      <trkpt lat="46.37841" lon="-0.94924">
        <ele>2.3</ele>
        <time>2015-05-18T08:27:31.000Z</time>
      </trkpt>
      <trkpt lat="46.37851" lon="-0.94912">
        <ele>2.2</ele>
        <time>2015-05-18T08:27:41.000Z</time>
      </trkpt>
      <trkpt lat="46.37861" lon="-0.94901">
        <ele>2.6</ele>
        <time>2015-05-18T08:27:50.000Z</time>
      </trkpt>
      <trkpt lat="46.37871" lon="-0.94888">
        <ele>2.7</ele>
        <time>2015-05-18T08:28:00.000Z</time>
      </trkpt>
      <trkpt lat="46.37878" lon="-0.94881">
        <ele>2.6</ele>
        <time>2015-05-18T08:28:07.000Z</time>
      </trkpt>
      <trkpt lat="46.37886" lon="-0.94871">
        <ele>2.7</ele>
        <time>2015-05-18T08:28:15.000Z</time>
      </trkpt>
      <trkpt lat="46.37894" lon="-0.9486">
        <ele>3</ele>
        <time>2015-05-18T08:28:23.000Z</time>
      </trkpt>
      <trkpt lat="46.37904" lon="-0.94848">
        <ele>3</ele>
        <time>2015-05-18T08:28:33.000Z</time>
      </trkpt>
      <trkpt lat="46.37915" lon="-0.94834">
        <ele>3</ele>
        <time>2015-05-18T08:28:44.000Z</time>
      </trkpt>
      <trkpt lat="46.37922" lon="-0.94823">
        <ele>3</ele>
        <time>2015-05-18T08:28:52.000Z</time>
      </trkpt>
      <trkpt lat="46.37933" lon="-0.94809">
        <ele>3</ele>
        <time>2015-05-18T08:29:03.000Z</time>
      </trkpt>
      <trkpt lat="46.37942" lon="-0.94797">
        <ele>3</ele>
        <time>2015-05-18T08:29:12.000Z</time>
      </trkpt>
      <trkpt lat="46.37951" lon="-0.94787">
        <ele>3.2</ele>
        <time>2015-05-18T08:29:20.000Z</time>
      </trkpt>
      <trkpt lat="46.37962" lon="-0.94774">
        <ele>3.6</ele>
        <time>2015-05-18T08:29:31.000Z</time>
      </trkpt>
      <trkpt lat="46.37974" lon="-0.94763">
        <ele>3.5</ele>
        <time>2015-05-18T08:29:41.000Z</time>
      </trkpt>
      <trkpt lat="46.37987" lon="-0.94751">
        <ele>3</ele>
        <time>2015-05-18T08:29:52.000Z</time>
      </trkpt>
      <trkpt lat="46.37997" lon="-0.94739">
        <ele>3</ele>
        <time>2015-05-18T08:30:02.000Z</time>
      </trkpt>
      <trkpt lat="46.38002" lon="-0.94733">
        <ele>3.1</ele>
        <time>2015-05-18T08:30:07.000Z</time>
      </trkpt>
      <trkpt lat="46.38006" lon="-0.94728">
        <ele>3.2</ele>
        <time>2015-05-18T08:30:11.000Z</time>
      </trkpt>
      <trkpt lat="46.38016" lon="-0.94716">
        <ele>3.6</ele>
        <time>2015-05-18T08:30:21.000Z</time>
      </trkpt>
      <trkpt lat="46.3803" lon="-0.94699">
        <ele>4</ele>
        <time>2015-05-18T08:30:35.000Z</time>
      </trkpt>
      <trkpt lat="46.38038" lon="-0.94683">
        <ele>3.8</ele>
        <time>2015-05-18T08:30:45.000Z</time>
      </trkpt>
      <trkpt lat="46.38046" lon="-0.94665">
        <ele>3.7</ele>
        <time>2015-05-18T08:30:56.000Z</time>
      </trkpt>
      <trkpt lat="46.38052" lon="-0.94642">
        <ele>4</ele>
        <time>2015-05-18T08:31:08.000Z</time>
      </trkpt>
      <trkpt lat="46.38056" lon="-0.9462">
        <ele>4</ele>
        <time>2015-05-18T08:31:20.000Z</time>
      </trkpt>
      <trkpt lat="46.38062" lon="-0.94593">
        <ele>4</ele>
        <time>2015-05-18T08:31:34.000Z</time>
      </trkpt>
      <trkpt lat="46.38067" lon="-0.94574">
        <ele>4</ele>
        <time>2015-05-18T08:31:45.000Z</time>
      </trkpt>
      <trkpt lat="46.38072" lon="-0.94553">
        <ele>3.9</ele>
        <time>2015-05-18T08:31:57.000Z</time>
      </trkpt>
      <trkpt lat="46.38077" lon="-0.94533">
        <ele>3.2</ele>
        <time>2015-05-18T08:32:08.000Z</time>
      </trkpt>
      <trkpt lat="46.38082" lon="-0.94516">
        <ele>3.4</ele>
        <time>2015-05-18T08:32:18.000Z</time>
      </trkpt>
      <trkpt lat="46.38088" lon="-0.94492">
        <ele>4</ele>
        <time>2015-05-18T08:32:31.000Z</time>
      </trkpt>
      <trkpt lat="46.38094" lon="-0.94472">
        <ele>4</ele>
        <time>2015-05-18T08:32:42.000Z</time>
      </trkpt>
      <trkpt lat="46.381" lon="-0.94453">
        <ele>4</ele>
        <time>2015-05-18T08:32:53.000Z</time>
      </trkpt>
      <trkpt lat="46.38106" lon="-0.94433">
        <ele>3.9</ele>
        <time>2015-05-18T08:33:04.000Z</time>
      </trkpt>
      <trkpt lat="46.3811" lon="-0.94424">
        <ele>4</ele>
        <time>2015-05-18T08:33:11.000Z</time>
      </trkpt>
      <trkpt lat="46.38109" lon="-0.9442">
        <ele>3.9</ele>
        <time>2015-05-18T08:33:18.000Z</time>
      </trkpt>
      <trkpt lat="46.38111" lon="-0.94418">
        <ele>4</ele>
        <time>2015-05-18T08:33:29.000Z</time>
      </trkpt>
      <trkpt lat="46.38114" lon="-0.94409">
        <ele>4</ele>
        <time>2015-05-18T08:33:36.000Z</time>
      </trkpt>
      <trkpt lat="46.38119" lon="-0.94393">
        <ele>4</ele>
        <time>2015-05-18T08:33:46.000Z</time>
      </trkpt>
      <trkpt lat="46.38124" lon="-0.94379">
        <ele>3.8</ele>
        <time>2015-05-18T08:33:55.000Z</time>
      </trkpt>
      <trkpt lat="46.3813" lon="-0.9436">
        <ele>3.7</ele>
        <time>2015-05-18T08:34:06.000Z</time>
      </trkpt>
      <trkpt lat="46.38137" lon="-0.94344">
        <ele>3.9</ele>
        <time>2015-05-18T08:34:16.000Z</time>
      </trkpt>
      <trkpt lat="46.38142" lon="-0.94329">
        <ele>4</ele>
        <time>2015-05-18T08:34:25.000Z</time>
      </trkpt>
      <trkpt lat="46.38149" lon="-0.94306">
        <ele>4</ele>
        <time>2015-05-18T08:34:38.000Z</time>
      </trkpt>
      <trkpt lat="46.38155" lon="-0.94287">
        <ele>4</ele>
        <time>2015-05-18T08:34:49.000Z</time>
      </trkpt>
      <trkpt lat="46.38164" lon="-0.94271">
        <ele>4</ele>
        <time>2015-05-18T08:35:00.000Z</time>
      </trkpt>
      <trkpt lat="46.38174" lon="-0.94258">
        <ele>4</ele>
        <time>2015-05-18T08:35:10.000Z</time>
      </trkpt>
      <trkpt lat="46.38184" lon="-0.94247">
        <ele>4</ele>
        <time>2015-05-18T08:35:20.000Z</time>
      </trkpt>
      <trkpt lat="46.38195" lon="-0.94237">
        <ele>4</ele>
        <time>2015-05-18T08:35:30.000Z</time>
      </trkpt>
      <trkpt lat="46.38206" lon="-0.94229">
        <ele>4.3</ele>
        <time>2015-05-18T08:35:40.000Z</time>
      </trkpt>
      <trkpt lat="46.38218" lon="-0.94219">
        <ele>4.7</ele>
        <time>2015-05-18T08:35:50.000Z</time>
      </trkpt>
      <trkpt lat="46.38228" lon="-0.94212">
        <ele>4.5</ele>
        <time>2015-05-18T08:35:58.000Z</time>
      </trkpt>
      <trkpt lat="46.38241" lon="-0.94204">
        <ele>4.1</ele>
        <time>2015-05-18T08:36:09.000Z</time>
      </trkpt>
      <trkpt lat="46.38257" lon="-0.94194">
        <ele>4.2</ele>
        <time>2015-05-18T08:36:22.000Z</time>
      </trkpt>
      <trkpt lat="46.38272" lon="-0.94185">
        <ele>4.8</ele>
        <time>2015-05-18T08:36:35.000Z</time>
      </trkpt>
      <trkpt lat="46.38283" lon="-0.94179">
        <ele>4.9</ele>
        <time>2015-05-18T08:36:44.000Z</time>
      </trkpt>
      <trkpt lat="46.38295" lon="-0.94171">
        <ele>4.9</ele>
        <time>2015-05-18T08:36:54.000Z</time>
      </trkpt>
      <trkpt lat="46.38309" lon="-0.94163">
        <ele>5</ele>
        <time>2015-05-18T08:37:05.000Z</time>
      </trkpt>
      <trkpt lat="46.38319" lon="-0.94157">
        <ele>5</ele>
        <time>2015-05-18T08:37:13.000Z</time>
      </trkpt>
      <trkpt lat="46.38329" lon="-0.94152">
        <ele>5</ele>
        <time>2015-05-18T08:37:21.000Z</time>
      </trkpt>
      <trkpt lat="46.38342" lon="-0.94144">
        <ele>5.1</ele>
        <time>2015-05-18T08:37:32.000Z</time>
      </trkpt>
      <trkpt lat="46.38356" lon="-0.94135">
        <ele>5.1</ele>
        <time>2015-05-18T08:37:43.000Z</time>
      </trkpt>
      <trkpt lat="46.38367" lon="-0.94127">
        <ele>5.6</ele>
        <time>2015-05-18T08:37:52.000Z</time>
      </trkpt>
      <trkpt lat="46.38371" lon="-0.94114">
        <ele>5.9</ele>
        <time>2015-05-18T08:38:00.000Z</time>
      </trkpt>
      <trkpt lat="46.38368" lon="-0.94101">
        <ele>6</ele>
        <time>2015-05-18T08:38:07.000Z</time>
      </trkpt>
      <trkpt lat="46.38364" lon="-0.94085">
        <ele>6</ele>
        <time>2015-05-18T08:38:16.000Z</time>
      </trkpt>
      <trkpt lat="46.38357" lon="-0.9406">
        <ele>6</ele>
        <time>2015-05-18T08:38:29.000Z</time>
      </trkpt>
      <trkpt lat="46.38347" lon="-0.94023">
        <ele>6</ele>
        <time>2015-05-18T08:38:49.000Z</time>
      </trkpt>
      <trkpt lat="46.38342" lon="-0.94001">
        <ele>6</ele>
        <time>2015-05-18T08:39:00.000Z</time>
      </trkpt>
      <trkpt lat="46.38335" lon="-0.93977">
        <ele>6</ele>
        <time>2015-05-18T08:39:13.000Z</time>
      </trkpt>
      <trkpt lat="46.38329" lon="-0.93955">
        <ele>6.5</ele>
        <time>2015-05-18T08:39:25.000Z</time>
      </trkpt>
      <trkpt lat="46.38322" lon="-0.93934">
        <ele>6.7</ele>
        <time>2015-05-18T08:39:36.000Z</time>
      </trkpt>
      <trkpt lat="46.38313" lon="-0.93914">
        <ele>7</ele>
        <time>2015-05-18T08:39:48.000Z</time>
      </trkpt>
      <trkpt lat="46.3831" lon="-0.93906">
        <ele>7</ele>
        <time>2015-05-18T08:39:54.000Z</time>
      </trkpt>
      <trkpt lat="46.38306" lon="-0.93894">
        <ele>7</ele>
        <time>2015-05-18T08:40:01.000Z</time>
      </trkpt>
      <trkpt lat="46.38298" lon="-0.93875">
        <ele>6.9</ele>
        <time>2015-05-18T08:40:12.000Z</time>
      </trkpt>
      <trkpt lat="46.38291" lon="-0.93856">
        <ele>7</ele>
        <time>2015-05-18T08:40:22.000Z</time>
      </trkpt>
      <trkpt lat="46.38283" lon="-0.93835">
        <ele>7</ele>
        <time>2015-05-18T08:40:35.000Z</time>
      </trkpt>
      <trkpt lat="46.38275" lon="-0.93813">
        <ele>7</ele>
        <time>2015-05-18T08:40:48.000Z</time>
      </trkpt>
      <trkpt lat="46.38266" lon="-0.93791">
        <ele>7</ele>
        <time>2015-05-18T08:41:01.000Z</time>
      </trkpt>
      <trkpt lat="46.3826" lon="-0.93776">
        <ele>7</ele>
        <time>2015-05-18T08:41:10.000Z</time>
      </trkpt>
      <trkpt lat="46.38252" lon="-0.93758">
        <ele>7</ele>
        <time>2015-05-18T08:41:21.000Z</time>
      </trkpt>
      <trkpt lat="46.38243" lon="-0.93737">
        <ele>7</ele>
        <time>2015-05-18T08:41:34.000Z</time>
      </trkpt>
      <trkpt lat="46.3824" lon="-0.93729">
        <ele>7</ele>
        <time>2015-05-18T08:41:39.000Z</time>
      </trkpt>
      <trkpt lat="46.38236" lon="-0.93719">
        <ele>7</ele>
        <time>2015-05-18T08:41:45.000Z</time>
      </trkpt>
      <trkpt lat="46.38231" lon="-0.93705">
        <ele>7</ele>
        <time>2015-05-18T08:41:53.000Z</time>
      </trkpt>
      <trkpt lat="46.38223" lon="-0.93687">
        <ele>7</ele>
        <time>2015-05-18T08:42:04.000Z</time>
      </trkpt>
      <trkpt lat="46.38215" lon="-0.93667">
        <ele>6.7</ele>
        <time>2015-05-18T08:42:16.000Z</time>
      </trkpt>
      <trkpt lat="46.3821" lon="-0.93654">
        <ele>6.8</ele>
        <time>2015-05-18T08:42:25.000Z</time>
      </trkpt>
      <trkpt lat="46.38202" lon="-0.93636">
        <ele>7</ele>
        <time>2015-05-18T08:42:36.000Z</time>
      </trkpt>
      <trkpt lat="46.38195" lon="-0.93618">
        <ele>7</ele>
        <time>2015-05-18T08:42:46.000Z</time>
      </trkpt>
      <trkpt lat="46.38187" lon="-0.93597">
        <ele>6.9</ele>
        <time>2015-05-18T08:42:58.000Z</time>
      </trkpt>
      <trkpt lat="46.3818" lon="-0.9358">
        <ele>7</ele>
        <time>2015-05-18T08:43:08.000Z</time>
      </trkpt>
      <trkpt lat="46.38175" lon="-0.93568">
        <ele>7</ele>
        <time>2015-05-18T08:43:15.000Z</time>
      </trkpt>
      <trkpt lat="46.38168" lon="-0.93552">
        <ele>7</ele>
        <time>2015-05-18T08:43:25.000Z</time>
      </trkpt>
      <trkpt lat="46.38161" lon="-0.93538">
        <ele>7</ele>
        <time>2015-05-18T08:43:34.000Z</time>
      </trkpt>
      <trkpt lat="46.38156" lon="-0.93529">
        <ele>7</ele>
        <time>2015-05-18T08:43:40.000Z</time>
      </trkpt>
      <trkpt lat="46.38148" lon="-0.93509">
        <ele>6.8</ele>
        <time>2015-05-18T08:43:52.000Z</time>
      </trkpt>
      <trkpt lat="46.3814" lon="-0.93489">
        <ele>6.6</ele>
        <time>2015-05-18T08:44:04.000Z</time>
      </trkpt>
      <trkpt lat="46.38133" lon="-0.93472">
        <ele>6.2</ele>
        <time>2015-05-18T08:44:14.000Z</time>
      </trkpt>
      <trkpt lat="46.38123" lon="-0.93449">
        <ele>6.1</ele>
        <time>2015-05-18T08:44:28.000Z</time>
      </trkpt>
      <trkpt lat="46.38114" lon="-0.93426">
        <ele>6</ele>
        <time>2015-05-18T08:44:42.000Z</time>
      </trkpt>
      <trkpt lat="46.38108" lon="-0.93409">
        <ele>6</ele>
        <time>2015-05-18T08:44:52.000Z</time>
      </trkpt>
      <trkpt lat="46.38101" lon="-0.93393">
        <ele>6</ele>
        <time>2015-05-18T08:45:02.000Z</time>
      </trkpt>
      <trkpt lat="46.38091" lon="-0.93374">
        <ele>6</ele>
        <time>2015-05-18T08:45:15.000Z</time>
      </trkpt>
      <trkpt lat="46.38079" lon="-0.93372">
        <ele>6</ele>
        <time>2015-05-18T08:45:25.000Z</time>
      </trkpt>
      <trkpt lat="46.38067" lon="-0.93365">
        <ele>6</ele>
        <time>2015-05-18T08:45:34.000Z</time>
      </trkpt>
      <trkpt lat="46.38058" lon="-0.93356">
        <ele>6</ele>
        <time>2015-05-18T08:45:44.000Z</time>
      </trkpt>
      <trkpt lat="46.38051" lon="-0.93349">
        <ele>6</ele>
        <time>2015-05-18T08:45:54.000Z</time>
      </trkpt>
      <trkpt lat="46.3805" lon="-0.93348">
        <ele>6</ele>
        <time>2015-05-18T08:45:56.000Z</time>
      </trkpt>
      <trkpt lat="46.38048" lon="-0.93348">
        <ele>6</ele>
        <time>2015-05-18T08:46:06.000Z</time>
      </trkpt>
      <trkpt lat="46.38048" lon="-0.93345">
        <ele>6</ele>
        <time>2015-05-18T08:49:34.000Z</time>
      </trkpt>
      <trkpt lat="46.38047" lon="-0.93341">
        <ele>6</ele>
        <time>2015-05-18T08:49:40.000Z</time>
      </trkpt>
      <trkpt lat="46.38043" lon="-0.93334">
        <ele>6</ele>
        <time>2015-05-18T08:49:48.000Z</time>
      </trkpt>
      <trkpt lat="46.38037" lon="-0.93324">
        <ele>6.2</ele>
        <time>2015-05-18T08:49:58.000Z</time>
      </trkpt>
      <trkpt lat="46.38032" lon="-0.93314">
        <ele>6.6</ele>
        <time>2015-05-18T08:50:07.000Z</time>
      </trkpt>
      <trkpt lat="46.38026" lon="-0.93304">
        <ele>6.9</ele>
        <time>2015-05-18T08:50:15.000Z</time>
      </trkpt>
      <trkpt lat="46.38018" lon="-0.9329">
        <ele>6.5</ele>
        <time>2015-05-18T08:50:26.000Z</time>
      </trkpt>
      <trkpt lat="46.38009" lon="-0.93277">
        <ele>6.6</ele>
        <time>2015-05-18T08:50:37.000Z</time>
      </trkpt>
      <trkpt lat="46.38001" lon="-0.93266">
        <ele>6.6</ele>
        <time>2015-05-18T08:50:46.000Z</time>
      </trkpt>
      <trkpt lat="46.37991" lon="-0.93254">
        <ele>6.4</ele>
        <time>2015-05-18T08:50:57.000Z</time>
      </trkpt>
      <trkpt lat="46.37984" lon="-0.93245">
        <ele>6.6</ele>
        <time>2015-05-18T08:51:05.000Z</time>
      </trkpt>
      <trkpt lat="46.37975" lon="-0.93233">
        <ele>6.9</ele>
        <time>2015-05-18T08:51:15.000Z</time>
      </trkpt>
      <trkpt lat="46.37968" lon="-0.93225">
        <ele>7</ele>
        <time>2015-05-18T08:51:23.000Z</time>
      </trkpt>
      <trkpt lat="46.3796" lon="-0.93211">
        <ele>7</ele>
        <time>2015-05-18T08:51:33.000Z</time>
      </trkpt>
      <trkpt lat="46.37951" lon="-0.93197">
        <ele>7</ele>
        <time>2015-05-18T08:51:43.000Z</time>
      </trkpt>
      <trkpt lat="46.37945" lon="-0.93186">
        <ele>7</ele>
        <time>2015-05-18T08:51:51.000Z</time>
      </trkpt>
      <trkpt lat="46.37939" lon="-0.93172">
        <ele>7</ele>
        <time>2015-05-18T08:52:00.000Z</time>
      </trkpt>
      <trkpt lat="46.37933" lon="-0.9316">
        <ele>7</ele>
        <time>2015-05-18T08:52:08.000Z</time>
      </trkpt>
      <trkpt lat="46.37926" lon="-0.93146">
        <ele>7</ele>
        <time>2015-05-18T08:52:18.000Z</time>
      </trkpt>
      <trkpt lat="46.37919" lon="-0.93132">
        <ele>7</ele>
        <time>2015-05-18T08:52:26.000Z</time>
      </trkpt>
      <trkpt lat="46.37911" lon="-0.93117">
        <ele>7</ele>
        <time>2015-05-18T08:52:36.000Z</time>
      </trkpt>
      <trkpt lat="46.37905" lon="-0.93104">
        <ele>7</ele>
        <time>2015-05-18T08:52:44.000Z</time>
      </trkpt>
      <trkpt lat="46.379" lon="-0.93097">
        <ele>7</ele>
        <time>2015-05-18T08:52:49.000Z</time>
      </trkpt>
      <trkpt lat="46.37889" lon="-0.9309">
        <ele>7</ele>
        <time>2015-05-18T08:52:59.000Z</time>
      </trkpt>
      <trkpt lat="46.37877" lon="-0.93097">
        <ele>7</ele>
        <time>2015-05-18T08:53:08.000Z</time>
      </trkpt>
      <trkpt lat="46.37867" lon="-0.93106">
        <ele>7</ele>
        <time>2015-05-18T08:53:16.000Z</time>
      </trkpt>
      <trkpt lat="46.37855" lon="-0.93117">
        <ele>6.6</ele>
        <time>2015-05-18T08:53:27.000Z</time>
      </trkpt>
      <trkpt lat="46.37845" lon="-0.93127">
        <ele>6.2</ele>
        <time>2015-05-18T08:53:36.000Z</time>
      </trkpt>
      <trkpt lat="46.37834" lon="-0.93136">
        <ele>6</ele>
        <time>2015-05-18T08:53:45.000Z</time>
      </trkpt>
      <trkpt lat="46.37822" lon="-0.93147">
        <ele>6</ele>
        <time>2015-05-18T08:53:55.000Z</time>
      </trkpt>
      <trkpt lat="46.37811" lon="-0.93158">
        <ele>6</ele>
        <time>2015-05-18T08:54:05.000Z</time>
      </trkpt>
      <trkpt lat="46.37797" lon="-0.93169">
        <ele>5.9</ele>
        <time>2015-05-18T08:54:17.000Z</time>
      </trkpt>
      <trkpt lat="46.37785" lon="-0.9318">
        <ele>5.5</ele>
        <time>2015-05-18T08:54:27.000Z</time>
      </trkpt>
      <trkpt lat="46.37773" lon="-0.93189">
        <ele>5.2</ele>
        <time>2015-05-18T08:54:37.000Z</time>
      </trkpt>
      <trkpt lat="46.37762" lon="-0.93191">
        <ele>5.1</ele>
        <time>2015-05-18T08:54:46.000Z</time>
      </trkpt>
      <trkpt lat="46.37756" lon="-0.93183">
        <ele>5.1</ele>
        <time>2015-05-18T08:54:53.000Z</time>
      </trkpt>
      <trkpt lat="46.37748" lon="-0.93167">
        <ele>4.9</ele>
        <time>2015-05-18T08:55:05.000Z</time>
      </trkpt>
      <trkpt lat="46.37741" lon="-0.93151">
        <ele>4.9</ele>
        <time>2015-05-18T08:55:14.000Z</time>
      </trkpt>
      <trkpt lat="46.37728" lon="-0.93121">
        <ele>5.6</ele>
        <time>2015-05-18T08:55:34.000Z</time>
      </trkpt>
      <trkpt lat="46.37722" lon="-0.93107">
        <ele>6</ele>
        <time>2015-05-18T08:55:44.000Z</time>
      </trkpt>
      <trkpt lat="46.37713" lon="-0.93088">
        <ele>5.7</ele>
        <time>2015-05-18T08:55:55.000Z</time>
      </trkpt>
      <trkpt lat="46.37705" lon="-0.93068">
        <ele>5.7</ele>
        <time>2015-05-18T08:56:07.000Z</time>
      </trkpt>
      <trkpt lat="46.37697" lon="-0.93051">
        <ele>6</ele>
        <time>2015-05-18T08:56:18.000Z</time>
      </trkpt>
      <trkpt lat="46.37688" lon="-0.93032">
        <ele>5.8</ele>
        <time>2015-05-18T08:56:30.000Z</time>
      </trkpt>
      <trkpt lat="46.37679" lon="-0.93011">
        <ele>5.8</ele>
        <time>2015-05-18T08:56:43.000Z</time>
      </trkpt>
      <trkpt lat="46.37672" lon="-0.92995">
        <ele>6</ele>
        <time>2015-05-18T08:56:53.000Z</time>
      </trkpt>
      <trkpt lat="46.37669" lon="-0.92988">
        <ele>6</ele>
        <time>2015-05-18T08:56:57.000Z</time>
      </trkpt>
      <trkpt lat="46.37664" lon="-0.92976">
        <ele>5.9</ele>
        <time>2015-05-18T08:57:05.000Z</time>
      </trkpt>
      <trkpt lat="46.37655" lon="-0.92958">
        <ele>5.8</ele>
        <time>2015-05-18T08:57:17.000Z</time>
      </trkpt>
      <trkpt lat="46.37646" lon="-0.92939">
        <ele>6.2</ele>
        <time>2015-05-18T08:57:29.000Z</time>
      </trkpt>
      <trkpt lat="46.37639" lon="-0.92925">
        <ele>6.7</ele>
        <time>2015-05-18T08:57:38.000Z</time>
      </trkpt>
      <trkpt lat="46.37629" lon="-0.92907">
        <ele>6.4</ele>
        <time>2015-05-18T08:57:50.000Z</time>
      </trkpt>
      <trkpt lat="46.37621" lon="-0.92893">
        <ele>6.1</ele>
        <time>2015-05-18T08:58:00.000Z</time>
      </trkpt>
      <trkpt lat="46.37611" lon="-0.92878">
        <ele>6.4</ele>
        <time>2015-05-18T08:58:11.000Z</time>
      </trkpt>
      <trkpt lat="46.376" lon="-0.92862">
        <ele>6.6</ele>
        <time>2015-05-18T08:58:23.000Z</time>
      </trkpt>
      <trkpt lat="46.37589" lon="-0.92846">
        <ele>6.5</ele>
        <time>2015-05-18T08:58:34.000Z</time>
      </trkpt>
      <trkpt lat="46.3758" lon="-0.92832">
        <ele>6.9</ele>
        <time>2015-05-18T08:58:45.000Z</time>
      </trkpt>
      <trkpt lat="46.3757" lon="-0.92819">
        <ele>6.5</ele>
        <time>2015-05-18T08:58:56.000Z</time>
      </trkpt>
      <trkpt lat="46.37563" lon="-0.9281">
        <ele>6.3</ele>
        <time>2015-05-18T08:59:03.000Z</time>
      </trkpt>
      <trkpt lat="46.37554" lon="-0.92799">
        <ele>6</ele>
        <time>2015-05-18T08:59:13.000Z</time>
      </trkpt>
      <trkpt lat="46.37544" lon="-0.9279">
        <ele>6</ele>
        <time>2015-05-18T08:59:21.000Z</time>
      </trkpt>
      <trkpt lat="46.37532" lon="-0.9278">
        <ele>6</ele>
        <time>2015-05-18T08:59:32.000Z</time>
      </trkpt>
      <trkpt lat="46.37525" lon="-0.92774">
        <ele>6</ele>
        <time>2015-05-18T08:59:39.000Z</time>
      </trkpt>
      <trkpt lat="46.37514" lon="-0.92765">
        <ele>6</ele>
        <time>2015-05-18T08:59:49.000Z</time>
      </trkpt>
      <trkpt lat="46.37505" lon="-0.92758">
        <ele>6</ele>
        <time>2015-05-18T08:59:56.000Z</time>
      </trkpt>
      <trkpt lat="46.37493" lon="-0.92748">
        <ele>6</ele>
        <time>2015-05-18T09:00:06.000Z</time>
      </trkpt>
      <trkpt lat="46.37485" lon="-0.92743">
        <ele>5.9</ele>
        <time>2015-05-18T09:00:14.000Z</time>
      </trkpt>
      <trkpt lat="46.37475" lon="-0.92731">
        <ele>5.4</ele>
        <time>2015-05-18T09:00:23.000Z</time>
      </trkpt>
      <trkpt lat="46.37468" lon="-0.92716">
        <ele>4.6</ele>
        <time>2015-05-18T09:00:31.000Z</time>
      </trkpt>
      <trkpt lat="46.37465" lon="-0.92699">
        <ele>4.1</ele>
        <time>2015-05-18T09:00:41.000Z</time>
      </trkpt>
      <trkpt lat="46.3747" lon="-0.9269">
        <ele>4</ele>
        <time>2015-05-18T09:00:46.000Z</time>
      </trkpt>
      <trkpt lat="46.3748" lon="-0.92682">
        <ele>4.2</ele>
        <time>2015-05-18T09:00:56.000Z</time>
      </trkpt>
      <trkpt lat="46.37492" lon="-0.92675">
        <ele>4.2</ele>
        <time>2015-05-18T09:01:05.000Z</time>
      </trkpt>
      <trkpt lat="46.37503" lon="-0.92667">
        <ele>4.1</ele>
        <time>2015-05-18T09:01:14.000Z</time>
      </trkpt>
      <trkpt lat="46.37515" lon="-0.9266">
        <ele>4.4</ele>
        <time>2015-05-18T09:01:24.000Z</time>
      </trkpt>
      <trkpt lat="46.37514" lon="-0.9265">
        <ele>4.2</ele>
        <time>2015-05-18T09:01:29.000Z</time>
      </trkpt>
      <trkpt lat="46.3751" lon="-0.92637">
        <ele>4</ele>
        <time>2015-05-18T09:01:37.000Z</time>
      </trkpt>
      <trkpt lat="46.37505" lon="-0.92621">
        <ele>4</ele>
        <time>2015-05-18T09:01:45.000Z</time>
      </trkpt>
      <trkpt lat="46.37501" lon="-0.92607">
        <ele>4</ele>
        <time>2015-05-18T09:01:54.000Z</time>
      </trkpt>
      <trkpt lat="46.37496" lon="-0.92591">
        <ele>3.9</ele>
        <time>2015-05-18T09:02:03.000Z</time>
      </trkpt>
      <trkpt lat="46.37491" lon="-0.92575">
        <ele>3.7</ele>
        <time>2015-05-18T09:02:11.000Z</time>
      </trkpt>
      <trkpt lat="46.37485" lon="-0.92556">
        <ele>3</ele>
        <time>2015-05-18T09:02:22.000Z</time>
      </trkpt>
      <trkpt lat="46.37476" lon="-0.92532">
        <ele>3.7</ele>
        <time>2015-05-18T09:02:36.000Z</time>
      </trkpt>
      <trkpt lat="46.37469" lon="-0.92511">
        <ele>3.9</ele>
        <time>2015-05-18T09:02:48.000Z</time>
      </trkpt>
      <trkpt lat="46.37464" lon="-0.92498">
        <ele>3.7</ele>
        <time>2015-05-18T09:02:56.000Z</time>
      </trkpt>
      <trkpt lat="46.37457" lon="-0.92478">
        <ele>3.5</ele>
        <time>2015-05-18T09:03:06.000Z</time>
      </trkpt>
      <trkpt lat="46.37451" lon="-0.92463">
        <ele>3.9</ele>
        <time>2015-05-18T09:03:15.000Z</time>
      </trkpt>
      <trkpt lat="46.37443" lon="-0.92446">
        <ele>5.7</ele>
        <time>2015-05-18T09:03:26.000Z</time>
      </trkpt>
      <trkpt lat="46.37434" lon="-0.92433">
        <ele>4.1</ele>
        <time>2015-05-18T09:03:36.000Z</time>
      </trkpt>
      <trkpt lat="46.37428" lon="-0.92424">
        <ele>3.3</ele>
        <time>2015-05-18T09:03:43.000Z</time>
      </trkpt>
      <trkpt lat="46.37423" lon="-0.92414">
        <ele>2.9</ele>
        <time>2015-05-18T09:03:50.000Z</time>
      </trkpt>
      <trkpt lat="46.37415" lon="-0.92407">
        <ele>2.8</ele>
        <time>2015-05-18T09:03:56.000Z</time>
      </trkpt>
      <trkpt lat="46.37405" lon="-0.92396">
        <ele>3.6</ele>
        <time>2015-05-18T09:04:06.000Z</time>
      </trkpt>
      <trkpt lat="46.37394" lon="-0.92384">
        <ele>5</ele>
        <time>2015-05-18T09:04:18.000Z</time>
      </trkpt>
      <trkpt lat="46.37386" lon="-0.92378">
        <ele>5.2</ele>
        <time>2015-05-18T09:04:26.000Z</time>
      </trkpt>
      <trkpt lat="46.37384" lon="-0.92379">
        <ele>5.1</ele>
        <time>2015-05-18T09:04:27.000Z</time>
      </trkpt>
      <trkpt lat="46.37376" lon="-0.92391">
        <ele>5</ele>
        <time>2015-05-18T09:04:38.000Z</time>
      </trkpt>
      <trkpt lat="46.37373" lon="-0.92396">
        <ele>4.6</ele>
        <time>2015-05-18T09:04:46.000Z</time>
      </trkpt>
      <trkpt lat="46.37373" lon="-0.92396">
        <ele>4.6</ele>
        <time>2015-05-18T09:04:48.000Z</time>
      </trkpt>
    </trkseg>
  </trk>
</gpx>